<?xml version="1.0" encoding="UTF-8" standalone="no" ?>
<gpx xmlns="http://www.topografix.com/GPX/1/1" xmlns:xsi="http://www.w3.org/2001/XMLSchema-instance" xsi:schemaLocation="http://www.topografix.com/GPX/1/1 http://www.topografix.com/GPX/1/1/gpx.xsd" version="1.1" creator="VisuGPX - https://www.visugpx.com">
  <metadata>
    <name>Descente de Peygros</name>
    <desc><![CDATA[Sortie avec Faf et Fabienne]]></desc>
  </metadata>
  <trk>
    <name><![CDATA[DH de Peygros]]></name>
    <trkseg>
      <trkpt lat="43.59069" lon="6.94833">
        <ele>71</ele>
        <time>2012-06-19T15:39:06Z</time>
      </trkpt>
      <trkpt lat="43.59038" lon="6.94799">
        <ele>71</ele>
        <time>2012-06-19T15:39:15Z</time>
      </trkpt>
      <trkpt lat="43.59001" lon="6.94741">
        <ele>67</ele>
        <time>2012-06-19T15:39:24Z</time>
      </trkpt>
      <trkpt lat="43.58982" lon="6.94711">
        <ele>64</ele>
        <time>2012-06-19T15:39:33Z</time>
      </trkpt>
      <trkpt lat="43.58936" lon="6.94646">
        <ele>54</ele>
        <time>2012-06-19T15:39:42Z</time>
      </trkpt>
      <trkpt lat="43.58911" lon="6.94611">
        <ele>50</ele>
        <time>2012-06-19T15:39:51Z</time>
      </trkpt>
      <trkpt lat="43.58884" lon="6.94596">
        <ele>50</ele>
        <time>2012-06-19T15:40:00Z</time>
      </trkpt>
      <trkpt lat="43.58847" lon="6.94578">
        <ele>50</ele>
        <time>2012-06-19T15:40:09Z</time>
      </trkpt>
      <trkpt lat="43.58797" lon="6.94545">
        <ele>50</ele>
        <time>2012-06-19T15:40:18Z</time>
      </trkpt>
      <trkpt lat="43.58755" lon="6.94533">
        <ele>50</ele>
        <time>2012-06-19T15:40:27Z</time>
      </trkpt>
      <trkpt lat="43.58703" lon="6.9452">
        <ele>50</ele>
        <time>2012-06-19T15:40:36Z</time>
      </trkpt>
      <trkpt lat="43.58632" lon="6.94495">
        <ele>45</ele>
        <time>2012-06-19T15:40:45Z</time>
      </trkpt>
      <trkpt lat="43.58542" lon="6.94493">
        <ele>39</ele>
        <time>2012-06-19T15:40:54Z</time>
      </trkpt>
      <trkpt lat="43.58461" lon="6.94462">
        <ele>33</ele>
        <time>2012-06-19T15:41:03Z</time>
      </trkpt>
      <trkpt lat="43.58351" lon="6.94441">
        <ele>26</ele>
        <time>2012-06-19T15:41:12Z</time>
      </trkpt>
      <trkpt lat="43.58269" lon="6.94407">
        <ele>18</ele>
        <time>2012-06-19T15:41:22Z</time>
      </trkpt>
      <trkpt lat="43.58231" lon="6.94366">
        <ele>10</ele>
        <time>2012-06-19T15:41:31Z</time>
      </trkpt>
      <trkpt lat="43.58255" lon="6.94312">
        <ele>9</ele>
        <time>2012-06-19T15:41:40Z</time>
      </trkpt>
      <trkpt lat="43.5828" lon="6.94247">
        <ele>9</ele>
        <time>2012-06-19T15:41:49Z</time>
      </trkpt>
      <trkpt lat="43.58318" lon="6.94179">
        <ele>9</ele>
        <time>2012-06-19T15:41:58Z</time>
      </trkpt>
      <trkpt lat="43.58379" lon="6.94169">
        <ele>7</ele>
        <time>2012-06-19T15:42:07Z</time>
      </trkpt>
      <trkpt lat="43.58437" lon="6.94171">
        <ele>7</ele>
        <time>2012-06-19T15:42:16Z</time>
      </trkpt>
      <trkpt lat="43.5849" lon="6.94171">
        <ele>7</ele>
        <time>2012-06-19T15:42:25Z</time>
      </trkpt>
      <trkpt lat="43.58538" lon="6.94155">
        <ele>7</ele>
        <time>2012-06-19T15:42:34Z</time>
      </trkpt>
      <trkpt lat="43.58583" lon="6.94109">
        <ele>7</ele>
        <time>2012-06-19T15:42:43Z</time>
      </trkpt>
      <trkpt lat="43.58631" lon="6.94072">
        <ele>7</ele>
        <time>2012-06-19T15:42:52Z</time>
      </trkpt>
      <trkpt lat="43.58678" lon="6.94032">
        <ele>7</ele>
        <time>2012-06-19T15:43:01Z</time>
      </trkpt>
      <trkpt lat="43.58713" lon="6.93963">
        <ele>7</ele>
        <time>2012-06-19T15:43:10Z</time>
      </trkpt>
      <trkpt lat="43.58754" lon="6.93897">
        <ele>7</ele>
        <time>2012-06-19T15:43:19Z</time>
      </trkpt>
      <trkpt lat="43.58805" lon="6.93853">
        <ele>7</ele>
        <time>2012-06-19T15:43:28Z</time>
      </trkpt>
      <trkpt lat="43.58835" lon="6.93794">
        <ele>7</ele>
        <time>2012-06-19T15:43:37Z</time>
      </trkpt>
      <trkpt lat="43.58873" lon="6.93734">
        <ele>7</ele>
        <time>2012-06-19T15:43:46Z</time>
      </trkpt>
      <trkpt lat="43.58915" lon="6.9368">
        <ele>7</ele>
        <time>2012-06-19T15:43:55Z</time>
      </trkpt>
      <trkpt lat="43.5895" lon="6.93632">
        <ele>7</ele>
        <time>2012-06-19T15:44:04Z</time>
      </trkpt>
      <trkpt lat="43.58986" lon="6.93582">
        <ele>7</ele>
        <time>2012-06-19T15:44:13Z</time>
      </trkpt>
      <trkpt lat="43.59015" lon="6.93524">
        <ele>8</ele>
        <time>2012-06-19T15:44:22Z</time>
      </trkpt>
      <trkpt lat="43.59041" lon="6.93461">
        <ele>8</ele>
        <time>2012-06-19T15:44:31Z</time>
      </trkpt>
      <trkpt lat="43.59067" lon="6.93398">
        <ele>8</ele>
        <time>2012-06-19T15:44:40Z</time>
      </trkpt>
      <trkpt lat="43.59101" lon="6.93343">
        <ele>8</ele>
        <time>2012-06-19T15:44:49Z</time>
      </trkpt>
      <trkpt lat="43.59138" lon="6.93294">
        <ele>9</ele>
        <time>2012-06-19T15:44:58Z</time>
      </trkpt>
      <trkpt lat="43.5916" lon="6.93227">
        <ele>9</ele>
        <time>2012-06-19T15:45:07Z</time>
      </trkpt>
      <trkpt lat="43.59185" lon="6.9315">
        <ele>9</ele>
        <time>2012-06-19T15:45:16Z</time>
      </trkpt>
      <trkpt lat="43.59224" lon="6.93095">
        <ele>9</ele>
        <time>2012-06-19T15:45:25Z</time>
      </trkpt>
      <trkpt lat="43.59265" lon="6.93046">
        <ele>9</ele>
        <time>2012-06-19T15:45:34Z</time>
      </trkpt>
      <trkpt lat="43.59301" lon="6.93002">
        <ele>9</ele>
        <time>2012-06-19T15:45:43Z</time>
      </trkpt>
      <trkpt lat="43.59326" lon="6.92964">
        <ele>15</ele>
        <time>2012-06-19T15:45:52Z</time>
      </trkpt>
      <trkpt lat="43.59351" lon="6.92921">
        <ele>18</ele>
        <time>2012-06-19T15:46:01Z</time>
      </trkpt>
      <trkpt lat="43.59379" lon="6.92851">
        <ele>18</ele>
        <time>2012-06-19T15:46:10Z</time>
      </trkpt>
      <trkpt lat="43.5941" lon="6.9278">
        <ele>18</ele>
        <time>2012-06-19T15:46:19Z</time>
      </trkpt>
      <trkpt lat="43.59441" lon="6.92713">
        <ele>16</ele>
        <time>2012-06-19T15:46:28Z</time>
      </trkpt>
      <trkpt lat="43.59466" lon="6.92665">
        <ele>16</ele>
        <time>2012-06-19T15:46:37Z</time>
      </trkpt>
      <trkpt lat="43.59463" lon="6.92629">
        <ele>16</ele>
        <time>2012-06-19T15:46:46Z</time>
      </trkpt>
      <trkpt lat="43.59448" lon="6.92575">
        <ele>15</ele>
        <time>2012-06-19T15:46:55Z</time>
      </trkpt>
      <trkpt lat="43.5942" lon="6.92521">
        <ele>14</ele>
        <time>2012-06-19T15:47:04Z</time>
      </trkpt>
      <trkpt lat="43.59383" lon="6.92483">
        <ele>14</ele>
        <time>2012-06-19T15:47:13Z</time>
      </trkpt>
      <trkpt lat="43.59347" lon="6.92437">
        <ele>14</ele>
        <time>2012-06-19T15:47:22Z</time>
      </trkpt>
      <trkpt lat="43.59319" lon="6.92377">
        <ele>14</ele>
        <time>2012-06-19T15:47:31Z</time>
      </trkpt>
      <trkpt lat="43.59283" lon="6.92319">
        <ele>14</ele>
        <time>2012-06-19T15:47:40Z</time>
      </trkpt>
      <trkpt lat="43.59236" lon="6.92276">
        <ele>14</ele>
        <time>2012-06-19T15:47:49Z</time>
      </trkpt>
      <trkpt lat="43.59219" lon="6.92207">
        <ele>14</ele>
        <time>2012-06-19T15:47:58Z</time>
      </trkpt>
      <trkpt lat="43.5923" lon="6.92129">
        <ele>14</ele>
        <time>2012-06-19T15:48:07Z</time>
      </trkpt>
      <trkpt lat="43.59241" lon="6.92047">
        <ele>14</ele>
        <time>2012-06-19T15:48:16Z</time>
      </trkpt>
      <trkpt lat="43.59264" lon="6.91977">
        <ele>14</ele>
        <time>2012-06-19T15:48:25Z</time>
      </trkpt>
      <trkpt lat="43.59288" lon="6.91909">
        <ele>14</ele>
        <time>2012-06-19T15:48:34Z</time>
      </trkpt>
      <trkpt lat="43.59325" lon="6.91845">
        <ele>16</ele>
        <time>2012-06-19T15:48:43Z</time>
      </trkpt>
      <trkpt lat="43.59366" lon="6.91814">
        <ele>19</ele>
        <time>2012-06-19T15:48:52Z</time>
      </trkpt>
      <trkpt lat="43.59408" lon="6.91768">
        <ele>18</ele>
        <time>2012-06-19T15:49:01Z</time>
      </trkpt>
      <trkpt lat="43.59442" lon="6.91715">
        <ele>17</ele>
        <time>2012-06-19T15:49:10Z</time>
      </trkpt>
      <trkpt lat="43.59481" lon="6.91674">
        <ele>16</ele>
        <time>2012-06-19T15:49:19Z</time>
      </trkpt>
      <trkpt lat="43.59521" lon="6.91636">
        <ele>15</ele>
        <time>2012-06-19T15:49:28Z</time>
      </trkpt>
      <trkpt lat="43.59564" lon="6.91607">
        <ele>15</ele>
        <time>2012-06-19T15:49:37Z</time>
      </trkpt>
      <trkpt lat="43.59596" lon="6.9154">
        <ele>15</ele>
        <time>2012-06-19T15:49:47Z</time>
      </trkpt>
      <trkpt lat="43.59619" lon="6.91479">
        <ele>15</ele>
        <time>2012-06-19T15:49:56Z</time>
      </trkpt>
      <trkpt lat="43.59636" lon="6.91411">
        <ele>15</ele>
        <time>2012-06-19T15:50:05Z</time>
      </trkpt>
      <trkpt lat="43.59669" lon="6.9137">
        <ele>15</ele>
        <time>2012-06-19T15:50:14Z</time>
      </trkpt>
      <trkpt lat="43.59724" lon="6.9137">
        <ele>15</ele>
        <time>2012-06-19T15:50:23Z</time>
      </trkpt>
      <trkpt lat="43.59775" lon="6.91362">
        <ele>15</ele>
        <time>2012-06-19T15:50:32Z</time>
      </trkpt>
      <trkpt lat="43.59816" lon="6.91344">
        <ele>16</ele>
        <time>2012-06-19T15:50:41Z</time>
      </trkpt>
      <trkpt lat="43.59865" lon="6.91312">
        <ele>22</ele>
        <time>2012-06-19T15:50:51Z</time>
      </trkpt>
      <trkpt lat="43.59874" lon="6.91258">
        <ele>22</ele>
        <time>2012-06-19T15:51:00Z</time>
      </trkpt>
      <trkpt lat="43.59896" lon="6.91251">
        <ele>19</ele>
        <time>2012-06-19T15:51:09Z</time>
      </trkpt>
      <trkpt lat="43.59913" lon="6.91229">
        <ele>18</ele>
        <time>2012-06-19T15:51:18Z</time>
      </trkpt>
      <trkpt lat="43.59921" lon="6.91229">
        <ele>18</ele>
        <time>2012-06-19T15:51:28Z</time>
      </trkpt>
      <trkpt lat="43.59915" lon="6.91212">
        <ele>20</ele>
        <time>2012-06-19T15:51:37Z</time>
      </trkpt>
      <trkpt lat="43.59911" lon="6.91193">
        <ele>23</ele>
        <time>2012-06-19T15:51:46Z</time>
      </trkpt>
      <trkpt lat="43.59909" lon="6.91175">
        <ele>25</ele>
        <time>2012-06-19T15:51:55Z</time>
      </trkpt>
      <trkpt lat="43.59911" lon="6.91169">
        <ele>29</ele>
        <time>2012-06-19T15:52:05Z</time>
      </trkpt>
      <trkpt lat="43.5991" lon="6.91162">
        <ele>30</ele>
        <time>2012-06-19T15:52:14Z</time>
      </trkpt>
      <trkpt lat="43.59913" lon="6.91155">
        <ele>32</ele>
        <time>2012-06-19T15:52:25Z</time>
      </trkpt>
      <trkpt lat="43.59908" lon="6.91147">
        <ele>34</ele>
        <time>2012-06-19T15:52:34Z</time>
      </trkpt>
      <trkpt lat="43.59904" lon="6.91126">
        <ele>34</ele>
        <time>2012-06-19T15:52:43Z</time>
      </trkpt>
      <trkpt lat="43.59901" lon="6.91114">
        <ele>34</ele>
        <time>2012-06-19T15:52:52Z</time>
      </trkpt>
      <trkpt lat="43.59901" lon="6.91103">
        <ele>34</ele>
        <time>2012-06-19T15:53:01Z</time>
      </trkpt>
      <trkpt lat="43.59903" lon="6.91083">
        <ele>34</ele>
        <time>2012-06-19T15:53:10Z</time>
      </trkpt>
      <trkpt lat="43.59892" lon="6.91063">
        <ele>34</ele>
        <time>2012-06-19T15:53:19Z</time>
      </trkpt>
      <trkpt lat="43.59888" lon="6.91033">
        <ele>34</ele>
        <time>2012-06-19T15:53:28Z</time>
      </trkpt>
      <trkpt lat="43.59887" lon="6.91018">
        <ele>34</ele>
        <time>2012-06-19T15:53:39Z</time>
      </trkpt>
      <trkpt lat="43.59883" lon="6.91014">
        <ele>32</ele>
        <time>2012-06-19T15:53:50Z</time>
      </trkpt>
      <trkpt lat="43.5988" lon="6.91008">
        <ele>26</ele>
        <time>2012-06-19T15:54:00Z</time>
      </trkpt>
      <trkpt lat="43.59876" lon="6.91011">
        <ele>23</ele>
        <time>2012-06-19T15:54:10Z</time>
      </trkpt>
      <trkpt lat="43.59875" lon="6.91006">
        <ele>21</ele>
        <time>2012-06-19T15:54:19Z</time>
      </trkpt>
      <trkpt lat="43.59872" lon="6.91003">
        <ele>20</ele>
        <time>2012-06-19T15:54:29Z</time>
      </trkpt>
      <trkpt lat="43.59868" lon="6.91002">
        <ele>20</ele>
        <time>2012-06-19T15:54:39Z</time>
      </trkpt>
      <trkpt lat="43.59867" lon="6.91002">
        <ele>20</ele>
        <time>2012-06-19T15:54:50Z</time>
      </trkpt>
      <trkpt lat="43.5987" lon="6.90963">
        <ele>20</ele>
        <time>2012-06-19T15:54:59Z</time>
      </trkpt>
      <trkpt lat="43.59882" lon="6.90918">
        <ele>20</ele>
        <time>2012-06-19T15:55:08Z</time>
      </trkpt>
      <trkpt lat="43.59897" lon="6.90881">
        <ele>22</ele>
        <time>2012-06-19T15:55:17Z</time>
      </trkpt>
      <trkpt lat="43.59914" lon="6.90842">
        <ele>22</ele>
        <time>2012-06-19T15:55:27Z</time>
      </trkpt>
      <trkpt lat="43.59943" lon="6.90813">
        <ele>22</ele>
        <time>2012-06-19T15:55:37Z</time>
      </trkpt>
      <trkpt lat="43.59976" lon="6.90781">
        <ele>21</ele>
        <time>2012-06-19T15:55:46Z</time>
      </trkpt>
      <trkpt lat="43.60013" lon="6.90774">
        <ele>26</ele>
        <time>2012-06-19T15:55:55Z</time>
      </trkpt>
      <trkpt lat="43.60046" lon="6.90765">
        <ele>30</ele>
        <time>2012-06-19T15:56:04Z</time>
      </trkpt>
      <trkpt lat="43.60077" lon="6.90738">
        <ele>30</ele>
        <time>2012-06-19T15:56:13Z</time>
      </trkpt>
      <trkpt lat="43.60094" lon="6.90723">
        <ele>34</ele>
        <time>2012-06-19T15:56:22Z</time>
      </trkpt>
      <trkpt lat="43.6012" lon="6.9072">
        <ele>41</ele>
        <time>2012-06-19T15:56:32Z</time>
      </trkpt>
      <trkpt lat="43.60149" lon="6.90706">
        <ele>35</ele>
        <time>2012-06-19T15:56:42Z</time>
      </trkpt>
      <trkpt lat="43.6018" lon="6.90681">
        <ele>25</ele>
        <time>2012-06-19T15:56:52Z</time>
      </trkpt>
      <trkpt lat="43.6021" lon="6.90643">
        <ele>18</ele>
        <time>2012-06-19T15:57:01Z</time>
      </trkpt>
      <trkpt lat="43.60236" lon="6.90615">
        <ele>23</ele>
        <time>2012-06-19T15:57:10Z</time>
      </trkpt>
      <trkpt lat="43.60264" lon="6.9059">
        <ele>29</ele>
        <time>2012-06-19T15:57:19Z</time>
      </trkpt>
      <trkpt lat="43.60279" lon="6.90582">
        <ele>29</ele>
        <time>2012-06-19T15:57:28Z</time>
      </trkpt>
      <trkpt lat="43.60295" lon="6.90575">
        <ele>27</ele>
        <time>2012-06-19T15:57:37Z</time>
      </trkpt>
      <trkpt lat="43.603" lon="6.90567">
        <ele>23</ele>
        <time>2012-06-19T15:57:47Z</time>
      </trkpt>
      <trkpt lat="43.60303" lon="6.90556">
        <ele>21</ele>
        <time>2012-06-19T15:57:56Z</time>
      </trkpt>
      <trkpt lat="43.60308" lon="6.90537">
        <ele>21</ele>
        <time>2012-06-19T15:58:06Z</time>
      </trkpt>
      <trkpt lat="43.60314" lon="6.90528">
        <ele>21</ele>
        <time>2012-06-19T15:58:18Z</time>
      </trkpt>
      <trkpt lat="43.60315" lon="6.9052">
        <ele>21</ele>
        <time>2012-06-19T15:58:27Z</time>
      </trkpt>
      <trkpt lat="43.6032" lon="6.90509">
        <ele>21</ele>
        <time>2012-06-19T15:58:37Z</time>
      </trkpt>
      <trkpt lat="43.60327" lon="6.90476">
        <ele>21</ele>
        <time>2012-06-19T15:58:46Z</time>
      </trkpt>
      <trkpt lat="43.60327" lon="6.90429">
        <ele>21</ele>
        <time>2012-06-19T15:58:56Z</time>
      </trkpt>
      <trkpt lat="43.60315" lon="6.9038">
        <ele>21</ele>
        <time>2012-06-19T15:59:05Z</time>
      </trkpt>
      <trkpt lat="43.6031" lon="6.90341">
        <ele>21</ele>
        <time>2012-06-19T15:59:14Z</time>
      </trkpt>
      <trkpt lat="43.60319" lon="6.90314">
        <ele>21</ele>
        <time>2012-06-19T15:59:23Z</time>
      </trkpt>
      <trkpt lat="43.60325" lon="6.9029">
        <ele>23</ele>
        <time>2012-06-19T15:59:32Z</time>
      </trkpt>
      <trkpt lat="43.60328" lon="6.90269">
        <ele>23</ele>
        <time>2012-06-19T15:59:41Z</time>
      </trkpt>
      <trkpt lat="43.6033" lon="6.90257">
        <ele>26</ele>
        <time>2012-06-19T15:59:57Z</time>
      </trkpt>
      <trkpt lat="43.60346" lon="6.9025">
        <ele>26</ele>
        <time>2012-06-19T16:00:06Z</time>
      </trkpt>
      <trkpt lat="43.60378" lon="6.90237">
        <ele>29</ele>
        <time>2012-06-19T16:00:15Z</time>
      </trkpt>
      <trkpt lat="43.60412" lon="6.90219">
        <ele>33</ele>
        <time>2012-06-19T16:00:24Z</time>
      </trkpt>
      <trkpt lat="43.60448" lon="6.90204">
        <ele>36</ele>
        <time>2012-06-19T16:00:33Z</time>
      </trkpt>
      <trkpt lat="43.60482" lon="6.90192">
        <ele>34</ele>
        <time>2012-06-19T16:00:42Z</time>
      </trkpt>
      <trkpt lat="43.60518" lon="6.90192">
        <ele>34</ele>
        <time>2012-06-19T16:00:51Z</time>
      </trkpt>
      <trkpt lat="43.60548" lon="6.90215">
        <ele>33</ele>
        <time>2012-06-19T16:01:00Z</time>
      </trkpt>
      <trkpt lat="43.60572" lon="6.90253">
        <ele>33</ele>
        <time>2012-06-19T16:01:09Z</time>
      </trkpt>
      <trkpt lat="43.60593" lon="6.90295">
        <ele>33</ele>
        <time>2012-06-19T16:01:18Z</time>
      </trkpt>
      <trkpt lat="43.60616" lon="6.90335">
        <ele>33</ele>
        <time>2012-06-19T16:01:27Z</time>
      </trkpt>
      <trkpt lat="43.60618" lon="6.90381">
        <ele>33</ele>
        <time>2012-06-19T16:01:36Z</time>
      </trkpt>
      <trkpt lat="43.60631" lon="6.90374">
        <ele>33</ele>
        <time>2012-06-19T16:01:45Z</time>
      </trkpt>
      <trkpt lat="43.60673" lon="6.90283">
        <ele>24</ele>
        <time>2012-06-19T16:01:54Z</time>
      </trkpt>
      <trkpt lat="43.60664" lon="6.90192">
        <ele>23</ele>
        <time>2012-06-19T16:02:03Z</time>
      </trkpt>
      <trkpt lat="43.60671" lon="6.9012">
        <ele>23</ele>
        <time>2012-06-19T16:02:12Z</time>
      </trkpt>
      <trkpt lat="43.60704" lon="6.90071">
        <ele>23</ele>
        <time>2012-06-19T16:02:21Z</time>
      </trkpt>
      <trkpt lat="43.60731" lon="6.90021">
        <ele>23</ele>
        <time>2012-06-19T16:02:30Z</time>
      </trkpt>
      <trkpt lat="43.60757" lon="6.89972">
        <ele>23</ele>
        <time>2012-06-19T16:02:39Z</time>
      </trkpt>
      <trkpt lat="43.60783" lon="6.89917">
        <ele>23</ele>
        <time>2012-06-19T16:02:48Z</time>
      </trkpt>
      <trkpt lat="43.60802" lon="6.89862">
        <ele>23</ele>
        <time>2012-06-19T16:02:57Z</time>
      </trkpt>
      <trkpt lat="43.60837" lon="6.89828">
        <ele>23</ele>
        <time>2012-06-19T16:03:06Z</time>
      </trkpt>
      <trkpt lat="43.60873" lon="6.89794">
        <ele>23</ele>
        <time>2012-06-19T16:03:15Z</time>
      </trkpt>
      <trkpt lat="43.60903" lon="6.89744">
        <ele>23</ele>
        <time>2012-06-19T16:03:24Z</time>
      </trkpt>
      <trkpt lat="43.60926" lon="6.89685">
        <ele>27</ele>
        <time>2012-06-19T16:03:33Z</time>
      </trkpt>
      <trkpt lat="43.60947" lon="6.89634">
        <ele>27</ele>
        <time>2012-06-19T16:03:42Z</time>
      </trkpt>
      <trkpt lat="43.60978" lon="6.89592">
        <ele>27</ele>
        <time>2012-06-19T16:03:51Z</time>
      </trkpt>
      <trkpt lat="43.61017" lon="6.89563">
        <ele>24</ele>
        <time>2012-06-19T16:04:00Z</time>
      </trkpt>
      <trkpt lat="43.61047" lon="6.89555">
        <ele>22</ele>
        <time>2012-06-19T16:04:09Z</time>
      </trkpt>
      <trkpt lat="43.61053" lon="6.89552">
        <ele>22</ele>
        <time>2012-06-19T16:04:20Z</time>
      </trkpt>
      <trkpt lat="43.61064" lon="6.89546">
        <ele>22</ele>
        <time>2012-06-19T16:04:29Z</time>
      </trkpt>
      <trkpt lat="43.61077" lon="6.89543">
        <ele>23</ele>
        <time>2012-06-19T16:04:38Z</time>
      </trkpt>
      <trkpt lat="43.61092" lon="6.89545">
        <ele>27</ele>
        <time>2012-06-19T16:04:47Z</time>
      </trkpt>
      <trkpt lat="43.61105" lon="6.89542">
        <ele>29</ele>
        <time>2012-06-19T16:04:56Z</time>
      </trkpt>
      <trkpt lat="43.61114" lon="6.89543">
        <ele>30</ele>
        <time>2012-06-19T16:05:05Z</time>
      </trkpt>
      <trkpt lat="43.61111" lon="6.89559">
        <ele>32</ele>
        <time>2012-06-19T16:05:14Z</time>
      </trkpt>
      <trkpt lat="43.61099" lon="6.89567">
        <ele>35</ele>
        <time>2012-06-19T16:05:23Z</time>
      </trkpt>
      <trkpt lat="43.61086" lon="6.89576">
        <ele>35</ele>
        <time>2012-06-19T16:05:32Z</time>
      </trkpt>
      <trkpt lat="43.61074" lon="6.89583">
        <ele>36</ele>
        <time>2012-06-19T16:05:41Z</time>
      </trkpt>
      <trkpt lat="43.61063" lon="6.89592">
        <ele>38</ele>
        <time>2012-06-19T16:05:50Z</time>
      </trkpt>
      <trkpt lat="43.61052" lon="6.89599">
        <ele>40</ele>
        <time>2012-06-19T16:06:00Z</time>
      </trkpt>
      <trkpt lat="43.61057" lon="6.89609">
        <ele>43</ele>
        <time>2012-06-19T16:06:09Z</time>
      </trkpt>
      <trkpt lat="43.6107" lon="6.89604">
        <ele>48</ele>
        <time>2012-06-19T16:06:19Z</time>
      </trkpt>
      <trkpt lat="43.61082" lon="6.89608">
        <ele>49</ele>
        <time>2012-06-19T16:06:28Z</time>
      </trkpt>
      <trkpt lat="43.61095" lon="6.89614">
        <ele>49</ele>
        <time>2012-06-19T16:06:37Z</time>
      </trkpt>
      <trkpt lat="43.61106" lon="6.89615">
        <ele>49</ele>
        <time>2012-06-19T16:06:46Z</time>
      </trkpt>
      <trkpt lat="43.61118" lon="6.89612">
        <ele>49</ele>
        <time>2012-06-19T16:06:55Z</time>
      </trkpt>
      <trkpt lat="43.61124" lon="6.89627">
        <ele>51</ele>
        <time>2012-06-19T16:07:04Z</time>
      </trkpt>
      <trkpt lat="43.61112" lon="6.89634">
        <ele>53</ele>
        <time>2012-06-19T16:07:13Z</time>
      </trkpt>
      <trkpt lat="43.61099" lon="6.89638">
        <ele>55</ele>
        <time>2012-06-19T16:07:22Z</time>
      </trkpt>
      <trkpt lat="43.61085" lon="6.89638">
        <ele>59</ele>
        <time>2012-06-19T16:07:31Z</time>
      </trkpt>
      <trkpt lat="43.61072" lon="6.89638">
        <ele>60</ele>
        <time>2012-06-19T16:07:40Z</time>
      </trkpt>
      <trkpt lat="43.61059" lon="6.89641">
        <ele>63</ele>
        <time>2012-06-19T16:07:49Z</time>
      </trkpt>
      <trkpt lat="43.6105" lon="6.89655">
        <ele>63</ele>
        <time>2012-06-19T16:07:58Z</time>
      </trkpt>
      <trkpt lat="43.61041" lon="6.89671">
        <ele>64</ele>
        <time>2012-06-19T16:08:07Z</time>
      </trkpt>
      <trkpt lat="43.61033" lon="6.89685">
        <ele>65</ele>
        <time>2012-06-19T16:08:16Z</time>
      </trkpt>
      <trkpt lat="43.61027" lon="6.89702">
        <ele>66</ele>
        <time>2012-06-19T16:08:25Z</time>
      </trkpt>
      <trkpt lat="43.61022" lon="6.89717">
        <ele>68</ele>
        <time>2012-06-19T16:08:34Z</time>
      </trkpt>
      <trkpt lat="43.61018" lon="6.89732">
        <ele>69</ele>
        <time>2012-06-19T16:08:43Z</time>
      </trkpt>
      <trkpt lat="43.61015" lon="6.89747">
        <ele>71</ele>
        <time>2012-06-19T16:08:52Z</time>
      </trkpt>
      <trkpt lat="43.61012" lon="6.89761">
        <ele>72</ele>
        <time>2012-06-19T16:09:01Z</time>
      </trkpt>
      <trkpt lat="43.61009" lon="6.89776">
        <ele>74</ele>
        <time>2012-06-19T16:09:10Z</time>
      </trkpt>
      <trkpt lat="43.61006" lon="6.89791">
        <ele>76</ele>
        <time>2012-06-19T16:09:19Z</time>
      </trkpt>
      <trkpt lat="43.61004" lon="6.89806">
        <ele>78</ele>
        <time>2012-06-19T16:09:28Z</time>
      </trkpt>
      <trkpt lat="43.61002" lon="6.89823">
        <ele>80</ele>
        <time>2012-06-19T16:09:37Z</time>
      </trkpt>
      <trkpt lat="43.61003" lon="6.8984">
        <ele>82</ele>
        <time>2012-06-19T16:09:46Z</time>
      </trkpt>
      <trkpt lat="43.61003" lon="6.89858">
        <ele>84</ele>
        <time>2012-06-19T16:09:55Z</time>
      </trkpt>
      <trkpt lat="43.60995" lon="6.89872">
        <ele>86</ele>
        <time>2012-06-19T16:10:04Z</time>
      </trkpt>
      <trkpt lat="43.60987" lon="6.89884">
        <ele>86</ele>
        <time>2012-06-19T16:10:13Z</time>
      </trkpt>
      <trkpt lat="43.60981" lon="6.89897">
        <ele>86</ele>
        <time>2012-06-19T16:10:22Z</time>
      </trkpt>
      <trkpt lat="43.60975" lon="6.89913">
        <ele>88</ele>
        <time>2012-06-19T16:10:31Z</time>
      </trkpt>
      <trkpt lat="43.6097" lon="6.89929">
        <ele>90</ele>
        <time>2012-06-19T16:10:40Z</time>
      </trkpt>
      <trkpt lat="43.60967" lon="6.89946">
        <ele>91</ele>
        <time>2012-06-19T16:10:49Z</time>
      </trkpt>
      <trkpt lat="43.60962" lon="6.89964">
        <ele>93</ele>
        <time>2012-06-19T16:10:58Z</time>
      </trkpt>
      <trkpt lat="43.60959" lon="6.89982">
        <ele>95</ele>
        <time>2012-06-19T16:11:07Z</time>
      </trkpt>
      <trkpt lat="43.60957" lon="6.90001">
        <ele>96</ele>
        <time>2012-06-19T16:11:16Z</time>
      </trkpt>
      <trkpt lat="43.60959" lon="6.90021">
        <ele>98</ele>
        <time>2012-06-19T16:11:25Z</time>
      </trkpt>
      <trkpt lat="43.60963" lon="6.90039">
        <ele>99</ele>
        <time>2012-06-19T16:11:34Z</time>
      </trkpt>
      <trkpt lat="43.60967" lon="6.90051">
        <ele>101</ele>
        <time>2012-06-19T16:11:48Z</time>
      </trkpt>
      <trkpt lat="43.60968" lon="6.90053">
        <ele>101</ele>
        <time>2012-06-19T16:11:58Z</time>
      </trkpt>
      <trkpt lat="43.60982" lon="6.90061">
        <ele>101</ele>
        <time>2012-06-19T16:12:07Z</time>
      </trkpt>
      <trkpt lat="43.60999" lon="6.90075">
        <ele>101</ele>
        <time>2012-06-19T16:12:16Z</time>
      </trkpt>
      <trkpt lat="43.6101" lon="6.90099">
        <ele>102</ele>
        <time>2012-06-19T16:12:25Z</time>
      </trkpt>
      <trkpt lat="43.61024" lon="6.90115">
        <ele>102</ele>
        <time>2012-06-19T16:12:34Z</time>
      </trkpt>
      <trkpt lat="43.6104" lon="6.90132">
        <ele>103</ele>
        <time>2012-06-19T16:12:43Z</time>
      </trkpt>
      <trkpt lat="43.61057" lon="6.90156">
        <ele>103</ele>
        <time>2012-06-19T16:12:52Z</time>
      </trkpt>
      <trkpt lat="43.61079" lon="6.90166">
        <ele>104</ele>
        <time>2012-06-19T16:13:01Z</time>
      </trkpt>
      <trkpt lat="43.61098" lon="6.90185">
        <ele>104</ele>
        <time>2012-06-19T16:13:10Z</time>
      </trkpt>
      <trkpt lat="43.61118" lon="6.90187">
        <ele>105</ele>
        <time>2012-06-19T16:13:19Z</time>
      </trkpt>
      <trkpt lat="43.61139" lon="6.90181">
        <ele>107</ele>
        <time>2012-06-19T16:13:28Z</time>
      </trkpt>
      <trkpt lat="43.6116" lon="6.9019">
        <ele>107</ele>
        <time>2012-06-19T16:13:37Z</time>
      </trkpt>
      <trkpt lat="43.61166" lon="6.90223">
        <ele>107</ele>
        <time>2012-06-19T16:13:46Z</time>
      </trkpt>
      <trkpt lat="43.61148" lon="6.90261">
        <ele>107</ele>
        <time>2012-06-19T16:13:55Z</time>
      </trkpt>
      <trkpt lat="43.61134" lon="6.90298">
        <ele>107</ele>
        <time>2012-06-19T16:14:04Z</time>
      </trkpt>
      <trkpt lat="43.6113" lon="6.90341">
        <ele>107</ele>
        <time>2012-06-19T16:14:13Z</time>
      </trkpt>
      <trkpt lat="43.6113" lon="6.9038">
        <ele>108</ele>
        <time>2012-06-19T16:14:22Z</time>
      </trkpt>
      <trkpt lat="43.61147" lon="6.90411">
        <ele>109</ele>
        <time>2012-06-19T16:14:31Z</time>
      </trkpt>
      <trkpt lat="43.6116" lon="6.90453">
        <ele>110</ele>
        <time>2012-06-19T16:14:40Z</time>
      </trkpt>
      <trkpt lat="43.61155" lon="6.90486">
        <ele>112</ele>
        <time>2012-06-19T16:14:49Z</time>
      </trkpt>
      <trkpt lat="43.61147" lon="6.90523">
        <ele>112</ele>
        <time>2012-06-19T16:14:58Z</time>
      </trkpt>
      <trkpt lat="43.61169" lon="6.90544">
        <ele>114</ele>
        <time>2012-06-19T16:15:07Z</time>
      </trkpt>
      <trkpt lat="43.61191" lon="6.90565">
        <ele>114</ele>
        <time>2012-06-19T16:15:16Z</time>
      </trkpt>
      <trkpt lat="43.61177" lon="6.90599">
        <ele>115</ele>
        <time>2012-06-19T16:15:25Z</time>
      </trkpt>
      <trkpt lat="43.61172" lon="6.90638">
        <ele>115</ele>
        <time>2012-06-19T16:15:34Z</time>
      </trkpt>
      <trkpt lat="43.61181" lon="6.90679">
        <ele>116</ele>
        <time>2012-06-19T16:15:43Z</time>
      </trkpt>
      <trkpt lat="43.61169" lon="6.90716">
        <ele>117</ele>
        <time>2012-06-19T16:15:52Z</time>
      </trkpt>
      <trkpt lat="43.61177" lon="6.90754">
        <ele>118</ele>
        <time>2012-06-19T16:16:01Z</time>
      </trkpt>
      <trkpt lat="43.61187" lon="6.9079">
        <ele>118</ele>
        <time>2012-06-19T16:16:10Z</time>
      </trkpt>
      <trkpt lat="43.61183" lon="6.90819">
        <ele>120</ele>
        <time>2012-06-19T16:16:19Z</time>
      </trkpt>
      <trkpt lat="43.61172" lon="6.90822">
        <ele>121</ele>
        <time>2012-06-19T16:16:28Z</time>
      </trkpt>
      <trkpt lat="43.61171" lon="6.90815">
        <ele>121</ele>
        <time>2012-06-19T16:16:37Z</time>
      </trkpt>
      <trkpt lat="43.61172" lon="6.90814">
        <ele>122</ele>
        <time>2012-06-19T16:17:07Z</time>
      </trkpt>
      <trkpt lat="43.61173" lon="6.90814">
        <ele>122</ele>
        <time>2012-06-19T16:17:42Z</time>
      </trkpt>
      <trkpt lat="43.61172" lon="6.90814">
        <ele>122</ele>
        <time>2012-06-19T16:18:09Z</time>
      </trkpt>
      <trkpt lat="43.61173" lon="6.90813">
        <ele>123</ele>
        <time>2012-06-19T16:18:46Z</time>
      </trkpt>
      <trkpt lat="43.61174" lon="6.90814">
        <ele>123</ele>
        <time>2012-06-19T16:19:00Z</time>
      </trkpt>
      <trkpt lat="43.61172" lon="6.90813">
        <ele>123</ele>
        <time>2012-06-19T16:19:49Z</time>
      </trkpt>
      <trkpt lat="43.61172" lon="6.90815">
        <ele>123</ele>
        <time>2012-06-19T16:20:24Z</time>
      </trkpt>
      <trkpt lat="43.61174" lon="6.90813">
        <ele>123</ele>
        <time>2012-06-19T16:20:54Z</time>
      </trkpt>
      <trkpt lat="43.61174" lon="6.90815">
        <ele>122</ele>
        <time>2012-06-19T16:21:37Z</time>
      </trkpt>
      <trkpt lat="43.61173" lon="6.90815">
        <ele>120</ele>
        <time>2012-06-19T16:23:11Z</time>
      </trkpt>
      <trkpt lat="43.61171" lon="6.90817">
        <ele>124</ele>
        <time>2012-06-19T16:23:39Z</time>
      </trkpt>
      <trkpt lat="43.61168" lon="6.90817">
        <ele>124</ele>
        <time>2012-06-19T16:23:48Z</time>
      </trkpt>
      <trkpt lat="43.61172" lon="6.90821">
        <ele>124</ele>
        <time>2012-06-19T16:23:57Z</time>
      </trkpt>
      <trkpt lat="43.61179" lon="6.90827">
        <ele>124</ele>
        <time>2012-06-19T16:24:06Z</time>
      </trkpt>
      <trkpt lat="43.61177" lon="6.90815">
        <ele>124</ele>
        <time>2012-06-19T16:24:15Z</time>
      </trkpt>
      <trkpt lat="43.61174" lon="6.90816">
        <ele>124</ele>
        <time>2012-06-19T16:24:38Z</time>
      </trkpt>
      <trkpt lat="43.61172" lon="6.90819">
        <ele>124</ele>
        <time>2012-06-19T16:24:54Z</time>
      </trkpt>
      <trkpt lat="43.61171" lon="6.90819">
        <ele>124</ele>
        <time>2012-06-19T16:25:05Z</time>
      </trkpt>
      <trkpt lat="43.61172" lon="6.90817">
        <ele>125</ele>
        <time>2012-06-19T16:25:26Z</time>
      </trkpt>
      <trkpt lat="43.61172" lon="6.90815">
        <ele>125</ele>
        <time>2012-06-19T16:25:52Z</time>
      </trkpt>
      <trkpt lat="43.61172" lon="6.90815">
        <ele>125</ele>
        <time>2012-06-19T16:26:03Z</time>
      </trkpt>
      <trkpt lat="43.61173" lon="6.90829">
        <ele>125</ele>
        <time>2012-06-19T16:26:12Z</time>
      </trkpt>
      <trkpt lat="43.6118" lon="6.90833">
        <ele>125</ele>
        <time>2012-06-19T16:26:21Z</time>
      </trkpt>
      <trkpt lat="43.61184" lon="6.90816">
        <ele>125</ele>
        <time>2012-06-19T16:26:30Z</time>
      </trkpt>
      <trkpt lat="43.61176" lon="6.90815">
        <ele>125</ele>
        <time>2012-06-19T16:26:39Z</time>
      </trkpt>
      <trkpt lat="43.61167" lon="6.90818">
        <ele>125</ele>
        <time>2012-06-19T16:26:48Z</time>
      </trkpt>
      <trkpt lat="43.61174" lon="6.90816">
        <ele>125</ele>
        <time>2012-06-19T16:27:30Z</time>
      </trkpt>
      <trkpt lat="43.61175" lon="6.90817">
        <ele>125</ele>
        <time>2012-06-19T16:27:58Z</time>
      </trkpt>
      <trkpt lat="43.61174" lon="6.90817">
        <ele>125</ele>
        <time>2012-06-19T16:28:20Z</time>
      </trkpt>
      <trkpt lat="43.61172" lon="6.90817">
        <ele>125</ele>
        <time>2012-06-19T16:28:29Z</time>
      </trkpt>
      <trkpt lat="43.61171" lon="6.90816">
        <ele>125</ele>
        <time>2012-06-19T16:28:55Z</time>
      </trkpt>
      <trkpt lat="43.61171" lon="6.90814">
        <ele>125</ele>
        <time>2012-06-19T16:29:48Z</time>
      </trkpt>
      <trkpt lat="43.61171" lon="6.90814">
        <ele>127</ele>
        <time>2012-06-19T16:30:20Z</time>
      </trkpt>
      <trkpt lat="43.61172" lon="6.90815">
        <ele>127</ele>
        <time>2012-06-19T16:30:37Z</time>
      </trkpt>
      <trkpt lat="43.61173" lon="6.90815">
        <ele>126</ele>
        <time>2012-06-19T16:30:57Z</time>
      </trkpt>
      <trkpt lat="43.61172" lon="6.90815">
        <ele>125</ele>
        <time>2012-06-19T16:32:10Z</time>
      </trkpt>
      <trkpt lat="43.61171" lon="6.90815">
        <ele>125</ele>
        <time>2012-06-19T16:34:14Z</time>
      </trkpt>
      <trkpt lat="43.61171" lon="6.90814">
        <ele>125</ele>
        <time>2012-06-19T16:34:28Z</time>
      </trkpt>
      <trkpt lat="43.61168" lon="6.9082">
        <ele>125</ele>
        <time>2012-06-19T16:34:37Z</time>
      </trkpt>
      <trkpt lat="43.6118" lon="6.90828">
        <ele>125</ele>
        <time>2012-06-19T16:34:46Z</time>
      </trkpt>
      <trkpt lat="43.6119" lon="6.90838">
        <ele>125</ele>
        <time>2012-06-19T16:34:55Z</time>
      </trkpt>
      <trkpt lat="43.61199" lon="6.90853">
        <ele>125</ele>
        <time>2012-06-19T16:35:05Z</time>
      </trkpt>
      <trkpt lat="43.61198" lon="6.90861">
        <ele>126</ele>
        <time>2012-06-19T16:35:14Z</time>
      </trkpt>
      <trkpt lat="43.61189" lon="6.90878">
        <ele>126</ele>
        <time>2012-06-19T16:35:23Z</time>
      </trkpt>
      <trkpt lat="43.61181" lon="6.90895">
        <ele>126</ele>
        <time>2012-06-19T16:35:32Z</time>
      </trkpt>
      <trkpt lat="43.6118" lon="6.90884">
        <ele>127</ele>
        <time>2012-06-19T16:35:41Z</time>
      </trkpt>
      <trkpt lat="43.61187" lon="6.90867">
        <ele>127</ele>
        <time>2012-06-19T16:35:50Z</time>
      </trkpt>
      <trkpt lat="43.612" lon="6.90852">
        <ele>127</ele>
        <time>2012-06-19T16:35:59Z</time>
      </trkpt>
      <trkpt lat="43.61196" lon="6.90845">
        <ele>127</ele>
        <time>2012-06-19T16:36:09Z</time>
      </trkpt>
      <trkpt lat="43.61204" lon="6.90843">
        <ele>127</ele>
        <time>2012-06-19T16:36:18Z</time>
      </trkpt>
      <trkpt lat="43.61215" lon="6.90852">
        <ele>127</ele>
        <time>2012-06-19T16:36:27Z</time>
      </trkpt>
      <trkpt lat="43.61215" lon="6.90831">
        <ele>127</ele>
        <time>2012-06-19T16:36:36Z</time>
      </trkpt>
      <trkpt lat="43.61223" lon="6.90836">
        <ele>128</ele>
        <time>2012-06-19T16:36:45Z</time>
      </trkpt>
      <trkpt lat="43.61239" lon="6.90838">
        <ele>128</ele>
        <time>2012-06-19T16:36:55Z</time>
      </trkpt>
      <trkpt lat="43.61244" lon="6.90824">
        <ele>129</ele>
        <time>2012-06-19T16:37:05Z</time>
      </trkpt>
      <trkpt lat="43.61254" lon="6.90819">
        <ele>129</ele>
        <time>2012-06-19T16:37:14Z</time>
      </trkpt>
      <trkpt lat="43.61266" lon="6.90821">
        <ele>131</ele>
        <time>2012-06-19T16:37:23Z</time>
      </trkpt>
      <trkpt lat="43.61276" lon="6.90817">
        <ele>133</ele>
        <time>2012-06-19T16:37:32Z</time>
      </trkpt>
      <trkpt lat="43.61287" lon="6.90827">
        <ele>134</ele>
        <time>2012-06-19T16:37:41Z</time>
      </trkpt>
      <trkpt lat="43.61299" lon="6.90827">
        <ele>137</ele>
        <time>2012-06-19T16:37:51Z</time>
      </trkpt>
      <trkpt lat="43.61311" lon="6.90825">
        <ele>140</ele>
        <time>2012-06-19T16:38:00Z</time>
      </trkpt>
      <trkpt lat="43.61323" lon="6.90815">
        <ele>142</ele>
        <time>2012-06-19T16:38:10Z</time>
      </trkpt>
      <trkpt lat="43.61333" lon="6.90803">
        <ele>143</ele>
        <time>2012-06-19T16:38:19Z</time>
      </trkpt>
      <trkpt lat="43.61349" lon="6.90798">
        <ele>145</ele>
        <time>2012-06-19T16:38:28Z</time>
      </trkpt>
      <trkpt lat="43.61369" lon="6.90791">
        <ele>145</ele>
        <time>2012-06-19T16:38:37Z</time>
      </trkpt>
      <trkpt lat="43.61395" lon="6.9078">
        <ele>145</ele>
        <time>2012-06-19T16:38:46Z</time>
      </trkpt>
      <trkpt lat="43.6142" lon="6.90766">
        <ele>145</ele>
        <time>2012-06-19T16:38:55Z</time>
      </trkpt>
      <trkpt lat="43.61442" lon="6.90769">
        <ele>146</ele>
        <time>2012-06-19T16:39:04Z</time>
      </trkpt>
      <trkpt lat="43.61452" lon="6.90795">
        <ele>147</ele>
        <time>2012-06-19T16:39:13Z</time>
      </trkpt>
      <trkpt lat="43.61464" lon="6.90819">
        <ele>149</ele>
        <time>2012-06-19T16:39:22Z</time>
      </trkpt>
      <trkpt lat="43.61478" lon="6.90824">
        <ele>151</ele>
        <time>2012-06-19T16:39:31Z</time>
      </trkpt>
      <trkpt lat="43.61494" lon="6.90823">
        <ele>154</ele>
        <time>2012-06-19T16:39:40Z</time>
      </trkpt>
      <trkpt lat="43.6151" lon="6.90815">
        <ele>157</ele>
        <time>2012-06-19T16:39:49Z</time>
      </trkpt>
      <trkpt lat="43.61529" lon="6.90815">
        <ele>158</ele>
        <time>2012-06-19T16:39:58Z</time>
      </trkpt>
      <trkpt lat="43.6154" lon="6.9084">
        <ele>158</ele>
        <time>2012-06-19T16:40:07Z</time>
      </trkpt>
      <trkpt lat="43.61552" lon="6.9086">
        <ele>161</ele>
        <time>2012-06-19T16:40:16Z</time>
      </trkpt>
      <trkpt lat="43.61566" lon="6.90871">
        <ele>163</ele>
        <time>2012-06-19T16:40:25Z</time>
      </trkpt>
      <trkpt lat="43.61594" lon="6.90873">
        <ele>163</ele>
        <time>2012-06-19T16:40:34Z</time>
      </trkpt>
      <trkpt lat="43.61617" lon="6.90898">
        <ele>163</ele>
        <time>2012-06-19T16:40:43Z</time>
      </trkpt>
      <trkpt lat="43.61631" lon="6.90921">
        <ele>165</ele>
        <time>2012-06-19T16:40:52Z</time>
      </trkpt>
      <trkpt lat="43.61657" lon="6.90936">
        <ele>165</ele>
        <time>2012-06-19T16:41:01Z</time>
      </trkpt>
      <trkpt lat="43.61695" lon="6.90922">
        <ele>165</ele>
        <time>2012-06-19T16:41:10Z</time>
      </trkpt>
      <trkpt lat="43.61716" lon="6.90929">
        <ele>165</ele>
        <time>2012-06-19T16:41:19Z</time>
      </trkpt>
      <trkpt lat="43.61733" lon="6.90938">
        <ele>167</ele>
        <time>2012-06-19T16:41:28Z</time>
      </trkpt>
      <trkpt lat="43.61745" lon="6.90949">
        <ele>170</ele>
        <time>2012-06-19T16:41:37Z</time>
      </trkpt>
      <trkpt lat="43.61758" lon="6.90961">
        <ele>173</ele>
        <time>2012-06-19T16:41:46Z</time>
      </trkpt>
      <trkpt lat="43.61772" lon="6.90966">
        <ele>176</ele>
        <time>2012-06-19T16:41:55Z</time>
      </trkpt>
      <trkpt lat="43.61784" lon="6.90974">
        <ele>178</ele>
        <time>2012-06-19T16:42:04Z</time>
      </trkpt>
      <trkpt lat="43.61798" lon="6.90984">
        <ele>179</ele>
        <time>2012-06-19T16:42:13Z</time>
      </trkpt>
      <trkpt lat="43.61811" lon="6.90985">
        <ele>181</ele>
        <time>2012-06-19T16:42:22Z</time>
      </trkpt>
      <trkpt lat="43.61823" lon="6.90982">
        <ele>183</ele>
        <time>2012-06-19T16:42:31Z</time>
      </trkpt>
      <trkpt lat="43.61834" lon="6.90975">
        <ele>186</ele>
        <time>2012-06-19T16:42:40Z</time>
      </trkpt>
      <trkpt lat="43.61842" lon="6.90964">
        <ele>188</ele>
        <time>2012-06-19T16:42:49Z</time>
      </trkpt>
      <trkpt lat="43.61849" lon="6.90951">
        <ele>190</ele>
        <time>2012-06-19T16:42:58Z</time>
      </trkpt>
      <trkpt lat="43.61854" lon="6.90936">
        <ele>192</ele>
        <time>2012-06-19T16:43:08Z</time>
      </trkpt>
      <trkpt lat="43.61857" lon="6.90923">
        <ele>194</ele>
        <time>2012-06-19T16:43:17Z</time>
      </trkpt>
      <trkpt lat="43.61857" lon="6.90909">
        <ele>196</ele>
        <time>2012-06-19T16:43:26Z</time>
      </trkpt>
      <trkpt lat="43.61859" lon="6.90892">
        <ele>198</ele>
        <time>2012-06-19T16:43:35Z</time>
      </trkpt>
      <trkpt lat="43.61867" lon="6.90871">
        <ele>198</ele>
        <time>2012-06-19T16:43:44Z</time>
      </trkpt>
      <trkpt lat="43.61872" lon="6.90848">
        <ele>200</ele>
        <time>2012-06-19T16:43:53Z</time>
      </trkpt>
      <trkpt lat="43.61872" lon="6.90821">
        <ele>201</ele>
        <time>2012-06-19T16:44:02Z</time>
      </trkpt>
      <trkpt lat="43.61878" lon="6.90801">
        <ele>202</ele>
        <time>2012-06-19T16:44:11Z</time>
      </trkpt>
      <trkpt lat="43.61882" lon="6.9079">
        <ele>204</ele>
        <time>2012-06-19T16:44:21Z</time>
      </trkpt>
      <trkpt lat="43.61884" lon="6.90778">
        <ele>205</ele>
        <time>2012-06-19T16:44:30Z</time>
      </trkpt>
      <trkpt lat="43.61886" lon="6.90764">
        <ele>206</ele>
        <time>2012-06-19T16:44:39Z</time>
      </trkpt>
      <trkpt lat="43.61885" lon="6.90752">
        <ele>206</ele>
        <time>2012-06-19T16:44:48Z</time>
      </trkpt>
      <trkpt lat="43.61883" lon="6.90739">
        <ele>206</ele>
        <time>2012-06-19T16:44:58Z</time>
      </trkpt>
      <trkpt lat="43.61881" lon="6.90728">
        <ele>208</ele>
        <time>2012-06-19T16:45:08Z</time>
      </trkpt>
      <trkpt lat="43.61876" lon="6.90717">
        <ele>209</ele>
        <time>2012-06-19T16:45:18Z</time>
      </trkpt>
      <trkpt lat="43.61867" lon="6.90719">
        <ele>212</ele>
        <time>2012-06-19T16:45:27Z</time>
      </trkpt>
      <trkpt lat="43.61858" lon="6.90724">
        <ele>214</ele>
        <time>2012-06-19T16:45:36Z</time>
      </trkpt>
      <trkpt lat="43.61848" lon="6.90728">
        <ele>216</ele>
        <time>2012-06-19T16:45:46Z</time>
      </trkpt>
      <trkpt lat="43.61839" lon="6.90731">
        <ele>218</ele>
        <time>2012-06-19T16:45:55Z</time>
      </trkpt>
      <trkpt lat="43.61829" lon="6.90731">
        <ele>220</ele>
        <time>2012-06-19T16:46:04Z</time>
      </trkpt>
      <trkpt lat="43.6182" lon="6.90723">
        <ele>222</ele>
        <time>2012-06-19T16:46:13Z</time>
      </trkpt>
      <trkpt lat="43.61819" lon="6.90708">
        <ele>223</ele>
        <time>2012-06-19T16:46:22Z</time>
      </trkpt>
      <trkpt lat="43.61822" lon="6.90693">
        <ele>224</ele>
        <time>2012-06-19T16:46:31Z</time>
      </trkpt>
      <trkpt lat="43.61823" lon="6.90678">
        <ele>226</ele>
        <time>2012-06-19T16:46:40Z</time>
      </trkpt>
      <trkpt lat="43.61826" lon="6.90659">
        <ele>228</ele>
        <time>2012-06-19T16:46:50Z</time>
      </trkpt>
      <trkpt lat="43.61827" lon="6.90643">
        <ele>229</ele>
        <time>2012-06-19T16:46:59Z</time>
      </trkpt>
      <trkpt lat="43.61828" lon="6.90627">
        <ele>231</ele>
        <time>2012-06-19T16:47:08Z</time>
      </trkpt>
      <trkpt lat="43.61828" lon="6.90607">
        <ele>232</ele>
        <time>2012-06-19T16:47:18Z</time>
      </trkpt>
      <trkpt lat="43.61831" lon="6.90589">
        <ele>233</ele>
        <time>2012-06-19T16:47:27Z</time>
      </trkpt>
      <trkpt lat="43.61834" lon="6.90567">
        <ele>235</ele>
        <time>2012-06-19T16:47:36Z</time>
      </trkpt>
      <trkpt lat="43.61841" lon="6.90544">
        <ele>236</ele>
        <time>2012-06-19T16:47:46Z</time>
      </trkpt>
      <trkpt lat="43.61847" lon="6.90521">
        <ele>237</ele>
        <time>2012-06-19T16:47:55Z</time>
      </trkpt>
      <trkpt lat="43.61852" lon="6.90497">
        <ele>238</ele>
        <time>2012-06-19T16:48:04Z</time>
      </trkpt>
      <trkpt lat="43.61852" lon="6.90476">
        <ele>240</ele>
        <time>2012-06-19T16:48:13Z</time>
      </trkpt>
      <trkpt lat="43.61854" lon="6.90452">
        <ele>241</ele>
        <time>2012-06-19T16:48:22Z</time>
      </trkpt>
      <trkpt lat="43.61868" lon="6.90441">
        <ele>243</ele>
        <time>2012-06-19T16:48:31Z</time>
      </trkpt>
      <trkpt lat="43.61885" lon="6.90432">
        <ele>244</ele>
        <time>2012-06-19T16:48:40Z</time>
      </trkpt>
      <trkpt lat="43.61897" lon="6.90417">
        <ele>246</ele>
        <time>2012-06-19T16:48:49Z</time>
      </trkpt>
      <trkpt lat="43.61907" lon="6.90406">
        <ele>248</ele>
        <time>2012-06-19T16:48:59Z</time>
      </trkpt>
      <trkpt lat="43.61908" lon="6.904">
        <ele>249</ele>
        <time>2012-06-19T16:49:13Z</time>
      </trkpt>
      <trkpt lat="43.61897" lon="6.90388">
        <ele>249</ele>
        <time>2012-06-19T16:49:23Z</time>
      </trkpt>
      <trkpt lat="43.61887" lon="6.90376">
        <ele>249</ele>
        <time>2012-06-19T16:49:32Z</time>
      </trkpt>
      <trkpt lat="43.61877" lon="6.90363">
        <ele>249</ele>
        <time>2012-06-19T16:49:41Z</time>
      </trkpt>
      <trkpt lat="43.61868" lon="6.90349">
        <ele>251</ele>
        <time>2012-06-19T16:49:52Z</time>
      </trkpt>
      <trkpt lat="43.6186" lon="6.90339">
        <ele>252</ele>
        <time>2012-06-19T16:50:01Z</time>
      </trkpt>
      <trkpt lat="43.6185" lon="6.90328">
        <ele>255</ele>
        <time>2012-06-19T16:50:10Z</time>
      </trkpt>
      <trkpt lat="43.61846" lon="6.90324">
        <ele>257</ele>
        <time>2012-06-19T16:50:20Z</time>
      </trkpt>
      <trkpt lat="43.6184" lon="6.90319">
        <ele>260</ele>
        <time>2012-06-19T16:50:30Z</time>
      </trkpt>
      <trkpt lat="43.61833" lon="6.90313">
        <ele>263</ele>
        <time>2012-06-19T16:50:42Z</time>
      </trkpt>
      <trkpt lat="43.61824" lon="6.90304">
        <ele>264</ele>
        <time>2012-06-19T16:50:51Z</time>
      </trkpt>
      <trkpt lat="43.61814" lon="6.90297">
        <ele>266</ele>
        <time>2012-06-19T16:51:00Z</time>
      </trkpt>
      <trkpt lat="43.61805" lon="6.9029">
        <ele>267</ele>
        <time>2012-06-19T16:51:09Z</time>
      </trkpt>
      <trkpt lat="43.61794" lon="6.90284">
        <ele>270</ele>
        <time>2012-06-19T16:51:19Z</time>
      </trkpt>
      <trkpt lat="43.6178" lon="6.90271">
        <ele>272</ele>
        <time>2012-06-19T16:51:29Z</time>
      </trkpt>
      <trkpt lat="43.61769" lon="6.90253">
        <ele>274</ele>
        <time>2012-06-19T16:51:39Z</time>
      </trkpt>
      <trkpt lat="43.61756" lon="6.90236">
        <ele>275</ele>
        <time>2012-06-19T16:51:48Z</time>
      </trkpt>
      <trkpt lat="43.6174" lon="6.9022">
        <ele>277</ele>
        <time>2012-06-19T16:51:57Z</time>
      </trkpt>
      <trkpt lat="43.61726" lon="6.90211">
        <ele>279</ele>
        <time>2012-06-19T16:52:06Z</time>
      </trkpt>
      <trkpt lat="43.61712" lon="6.90211">
        <ele>280</ele>
        <time>2012-06-19T16:52:15Z</time>
      </trkpt>
      <trkpt lat="43.61695" lon="6.90213">
        <ele>281</ele>
        <time>2012-06-19T16:52:24Z</time>
      </trkpt>
      <trkpt lat="43.6168" lon="6.90212">
        <ele>282</ele>
        <time>2012-06-19T16:52:34Z</time>
      </trkpt>
      <trkpt lat="43.61665" lon="6.90215">
        <ele>284</ele>
        <time>2012-06-19T16:52:43Z</time>
      </trkpt>
      <trkpt lat="43.61655" lon="6.90224">
        <ele>285</ele>
        <time>2012-06-19T16:52:52Z</time>
      </trkpt>
      <trkpt lat="43.61644" lon="6.90237">
        <ele>286</ele>
        <time>2012-06-19T16:53:01Z</time>
      </trkpt>
      <trkpt lat="43.61633" lon="6.9025">
        <ele>287</ele>
        <time>2012-06-19T16:53:10Z</time>
      </trkpt>
      <trkpt lat="43.61621" lon="6.90261">
        <ele>288</ele>
        <time>2012-06-19T16:53:19Z</time>
      </trkpt>
      <trkpt lat="43.6161" lon="6.90272">
        <ele>289</ele>
        <time>2012-06-19T16:53:28Z</time>
      </trkpt>
      <trkpt lat="43.61599" lon="6.9028">
        <ele>289</ele>
        <time>2012-06-19T16:53:38Z</time>
      </trkpt>
      <trkpt lat="43.61597" lon="6.90279">
        <ele>289</ele>
        <time>2012-06-19T16:53:50Z</time>
      </trkpt>
      <trkpt lat="43.61597" lon="6.9028">
        <ele>294</ele>
        <time>2012-06-19T16:54:38Z</time>
      </trkpt>
      <trkpt lat="43.61596" lon="6.9028">
        <ele>296</ele>
        <time>2012-06-19T16:55:07Z</time>
      </trkpt>
      <trkpt lat="43.61594" lon="6.9028">
        <ele>296</ele>
        <time>2012-06-19T16:55:19Z</time>
      </trkpt>
      <trkpt lat="43.61596" lon="6.9028">
        <ele>297</ele>
        <time>2012-06-19T16:55:57Z</time>
      </trkpt>
      <trkpt lat="43.61596" lon="6.90279">
        <ele>297</ele>
        <time>2012-06-19T16:56:44Z</time>
      </trkpt>
      <trkpt lat="43.61594" lon="6.90279">
        <ele>297</ele>
        <time>2012-06-19T16:56:57Z</time>
      </trkpt>
      <trkpt lat="43.61594" lon="6.90279">
        <ele>297</ele>
        <time>2012-06-19T16:57:23Z</time>
      </trkpt>
      <trkpt lat="43.61593" lon="6.90277">
        <ele>297</ele>
        <time>2012-06-19T16:57:47Z</time>
      </trkpt>
      <trkpt lat="43.61591" lon="6.9026">
        <ele>297</ele>
        <time>2012-06-19T16:57:56Z</time>
      </trkpt>
      <trkpt lat="43.61583" lon="6.90237">
        <ele>296</ele>
        <time>2012-06-19T16:58:05Z</time>
      </trkpt>
      <trkpt lat="43.61581" lon="6.90214">
        <ele>296</ele>
        <time>2012-06-19T16:58:14Z</time>
      </trkpt>
      <trkpt lat="43.61576" lon="6.90203">
        <ele>296</ele>
        <time>2012-06-19T16:58:23Z</time>
      </trkpt>
      <trkpt lat="43.61566" lon="6.90217">
        <ele>296</ele>
        <time>2012-06-19T16:58:33Z</time>
      </trkpt>
      <trkpt lat="43.6156" lon="6.90221">
        <ele>296</ele>
        <time>2012-06-19T16:58:43Z</time>
      </trkpt>
      <trkpt lat="43.6156" lon="6.90221">
        <ele>296</ele>
        <time>2012-06-19T16:59:00Z</time>
      </trkpt>
      <trkpt lat="43.61572" lon="6.90205">
        <ele>296</ele>
        <time>2012-06-19T16:59:09Z</time>
      </trkpt>
      <trkpt lat="43.61581" lon="6.90199">
        <ele>296</ele>
        <time>2012-06-19T16:59:18Z</time>
      </trkpt>
      <trkpt lat="43.61584" lon="6.90218">
        <ele>296</ele>
        <time>2012-06-19T16:59:27Z</time>
      </trkpt>
      <trkpt lat="43.61584" lon="6.9023">
        <ele>296</ele>
        <time>2012-06-19T16:59:43Z</time>
      </trkpt>
      <trkpt lat="43.61584" lon="6.90224">
        <ele>296</ele>
        <time>2012-06-19T16:59:52Z</time>
      </trkpt>
      <trkpt lat="43.61582" lon="6.90204">
        <ele>296</ele>
        <time>2012-06-19T17:00:01Z</time>
      </trkpt>
      <trkpt lat="43.61581" lon="6.90198">
        <ele>296</ele>
        <time>2012-06-19T17:00:22Z</time>
      </trkpt>
      <trkpt lat="43.61583" lon="6.90223">
        <ele>296</ele>
        <time>2012-06-19T17:00:31Z</time>
      </trkpt>
      <trkpt lat="43.61595" lon="6.90279">
        <ele>296</ele>
        <time>2012-06-19T17:00:40Z</time>
      </trkpt>
      <trkpt lat="43.6159" lon="6.90304">
        <ele>296</ele>
        <time>2012-06-19T17:00:49Z</time>
      </trkpt>
      <trkpt lat="43.6159" lon="6.90304">
        <ele>296</ele>
        <time>2012-06-19T17:01:04Z</time>
      </trkpt>
      <trkpt lat="43.61595" lon="6.90296">
        <ele>296</ele>
        <time>2012-06-19T17:01:13Z</time>
      </trkpt>
      <trkpt lat="43.61602" lon="6.90279">
        <ele>296</ele>
        <time>2012-06-19T17:01:22Z</time>
      </trkpt>
      <trkpt lat="43.61633" lon="6.90245">
        <ele>293</ele>
        <time>2012-06-19T17:01:31Z</time>
      </trkpt>
      <trkpt lat="43.61666" lon="6.90209">
        <ele>289</ele>
        <time>2012-06-19T17:01:40Z</time>
      </trkpt>
      <trkpt lat="43.6171" lon="6.90207">
        <ele>286</ele>
        <time>2012-06-19T17:01:49Z</time>
      </trkpt>
      <trkpt lat="43.61731" lon="6.90207">
        <ele>285</ele>
        <time>2012-06-19T17:01:58Z</time>
      </trkpt>
      <trkpt lat="43.61729" lon="6.90208">
        <ele>284</ele>
        <time>2012-06-19T17:02:33Z</time>
      </trkpt>
      <trkpt lat="43.6173" lon="6.90206">
        <ele>284</ele>
        <time>2012-06-19T17:02:47Z</time>
      </trkpt>
      <trkpt lat="43.61732" lon="6.90175">
        <ele>283</ele>
        <time>2012-06-19T17:02:56Z</time>
      </trkpt>
      <trkpt lat="43.61702" lon="6.90165">
        <ele>281</ele>
        <time>2012-06-19T17:03:05Z</time>
      </trkpt>
      <trkpt lat="43.61669" lon="6.90122">
        <ele>273</ele>
        <time>2012-06-19T17:03:14Z</time>
      </trkpt>
      <trkpt lat="43.61623" lon="6.90076">
        <ele>264</ele>
        <time>2012-06-19T17:03:23Z</time>
      </trkpt>
      <trkpt lat="43.61574" lon="6.90052">
        <ele>255</ele>
        <time>2012-06-19T17:03:32Z</time>
      </trkpt>
      <trkpt lat="43.6153" lon="6.90058">
        <ele>252</ele>
        <time>2012-06-19T17:03:41Z</time>
      </trkpt>
      <trkpt lat="43.61488" lon="6.90065">
        <ele>250</ele>
        <time>2012-06-19T17:03:50Z</time>
      </trkpt>
      <trkpt lat="43.61445" lon="6.90074">
        <ele>249</ele>
        <time>2012-06-19T17:03:59Z</time>
      </trkpt>
      <trkpt lat="43.61413" lon="6.90057">
        <ele>242</ele>
        <time>2012-06-19T17:04:08Z</time>
      </trkpt>
      <trkpt lat="43.61376" lon="6.90035">
        <ele>233</ele>
        <time>2012-06-19T17:04:17Z</time>
      </trkpt>
      <trkpt lat="43.61383" lon="6.89989">
        <ele>220</ele>
        <time>2012-06-19T17:04:26Z</time>
      </trkpt>
      <trkpt lat="43.61367" lon="6.89963">
        <ele>203</ele>
        <time>2012-06-19T17:04:35Z</time>
      </trkpt>
      <trkpt lat="43.61333" lon="6.89953">
        <ele>196</ele>
        <time>2012-06-19T17:04:44Z</time>
      </trkpt>
      <trkpt lat="43.61307" lon="6.8995">
        <ele>195</ele>
        <time>2012-06-19T17:04:53Z</time>
      </trkpt>
      <trkpt lat="43.61304" lon="6.89946">
        <ele>194</ele>
        <time>2012-06-19T17:05:18Z</time>
      </trkpt>
      <trkpt lat="43.61303" lon="6.89946">
        <ele>194</ele>
        <time>2012-06-19T17:05:32Z</time>
      </trkpt>
      <trkpt lat="43.61302" lon="6.89946">
        <ele>194</ele>
        <time>2012-06-19T17:05:52Z</time>
      </trkpt>
      <trkpt lat="43.61302" lon="6.89944">
        <ele>194</ele>
        <time>2012-06-19T17:06:05Z</time>
      </trkpt>
      <trkpt lat="43.61302" lon="6.89942">
        <ele>194</ele>
        <time>2012-06-19T17:06:23Z</time>
      </trkpt>
      <trkpt lat="43.61303" lon="6.89944">
        <ele>194</ele>
        <time>2012-06-19T17:06:38Z</time>
      </trkpt>
      <trkpt lat="43.61301" lon="6.89943">
        <ele>194</ele>
        <time>2012-06-19T17:06:54Z</time>
      </trkpt>
      <trkpt lat="43.61268" lon="6.89961">
        <ele>194</ele>
        <time>2012-06-19T17:07:03Z</time>
      </trkpt>
      <trkpt lat="43.61223" lon="6.90004">
        <ele>186</ele>
        <time>2012-06-19T17:07:12Z</time>
      </trkpt>
      <trkpt lat="43.61201" lon="6.90005">
        <ele>181</ele>
        <time>2012-06-19T17:07:21Z</time>
      </trkpt>
      <trkpt lat="43.61212" lon="6.90006">
        <ele>181</ele>
        <time>2012-06-19T17:07:30Z</time>
      </trkpt>
      <trkpt lat="43.61229" lon="6.90034">
        <ele>179</ele>
        <time>2012-06-19T17:07:39Z</time>
      </trkpt>
      <trkpt lat="43.61239" lon="6.9004">
        <ele>178</ele>
        <time>2012-06-19T17:07:51Z</time>
      </trkpt>
      <trkpt lat="43.61238" lon="6.90039">
        <ele>176</ele>
        <time>2012-06-19T17:08:19Z</time>
      </trkpt>
      <trkpt lat="43.61237" lon="6.90039">
        <ele>175</ele>
        <time>2012-06-19T17:08:28Z</time>
      </trkpt>
      <trkpt lat="43.61237" lon="6.90037">
        <ele>173</ele>
        <time>2012-06-19T17:09:06Z</time>
      </trkpt>
      <trkpt lat="43.61241" lon="6.90035">
        <ele>171</ele>
        <time>2012-06-19T17:09:15Z</time>
      </trkpt>
      <trkpt lat="43.61268" lon="6.90059">
        <ele>171</ele>
        <time>2012-06-19T17:09:24Z</time>
      </trkpt>
      <trkpt lat="43.61282" lon="6.90112">
        <ele>171</ele>
        <time>2012-06-19T17:09:33Z</time>
      </trkpt>
      <trkpt lat="43.6128" lon="6.90162">
        <ele>171</ele>
        <time>2012-06-19T17:09:42Z</time>
      </trkpt>
      <trkpt lat="43.6128" lon="6.90202">
        <ele>171</ele>
        <time>2012-06-19T17:09:51Z</time>
      </trkpt>
      <trkpt lat="43.61283" lon="6.90235">
        <ele>171</ele>
        <time>2012-06-19T17:10:00Z</time>
      </trkpt>
      <trkpt lat="43.61288" lon="6.90272">
        <ele>171</ele>
        <time>2012-06-19T17:10:09Z</time>
      </trkpt>
      <trkpt lat="43.61301" lon="6.90307">
        <ele>171</ele>
        <time>2012-06-19T17:10:18Z</time>
      </trkpt>
      <trkpt lat="43.61278" lon="6.9034">
        <ele>171</ele>
        <time>2012-06-19T17:10:27Z</time>
      </trkpt>
      <trkpt lat="43.6126" lon="6.90373">
        <ele>171</ele>
        <time>2012-06-19T17:10:36Z</time>
      </trkpt>
      <trkpt lat="43.61259" lon="6.90405">
        <ele>171</ele>
        <time>2012-06-19T17:10:45Z</time>
      </trkpt>
      <trkpt lat="43.61265" lon="6.90415">
        <ele>171</ele>
        <time>2012-06-19T17:10:58Z</time>
      </trkpt>
      <trkpt lat="43.61265" lon="6.90414">
        <ele>171</ele>
        <time>2012-06-19T17:11:11Z</time>
      </trkpt>
      <trkpt lat="43.61266" lon="6.90413">
        <ele>171</ele>
        <time>2012-06-19T17:11:20Z</time>
      </trkpt>
      <trkpt lat="43.61267" lon="6.90411">
        <ele>171</ele>
        <time>2012-06-19T17:11:35Z</time>
      </trkpt>
      <trkpt lat="43.61261" lon="6.9039">
        <ele>170</ele>
        <time>2012-06-19T17:11:44Z</time>
      </trkpt>
      <trkpt lat="43.61269" lon="6.90356">
        <ele>170</ele>
        <time>2012-06-19T17:11:53Z</time>
      </trkpt>
      <trkpt lat="43.61294" lon="6.90324">
        <ele>168</ele>
        <time>2012-06-19T17:12:02Z</time>
      </trkpt>
      <trkpt lat="43.61304" lon="6.90291">
        <ele>165</ele>
        <time>2012-06-19T17:12:11Z</time>
      </trkpt>
      <trkpt lat="43.61288" lon="6.90259">
        <ele>165</ele>
        <time>2012-06-19T17:12:20Z</time>
      </trkpt>
      <trkpt lat="43.61283" lon="6.90219">
        <ele>165</ele>
        <time>2012-06-19T17:12:29Z</time>
      </trkpt>
      <trkpt lat="43.6128" lon="6.90167">
        <ele>165</ele>
        <time>2012-06-19T17:12:38Z</time>
      </trkpt>
      <trkpt lat="43.61282" lon="6.90097">
        <ele>165</ele>
        <time>2012-06-19T17:12:47Z</time>
      </trkpt>
      <trkpt lat="43.6126" lon="6.90048">
        <ele>166</ele>
        <time>2012-06-19T17:12:56Z</time>
      </trkpt>
      <trkpt lat="43.61232" lon="6.90031">
        <ele>166</ele>
        <time>2012-06-19T17:13:05Z</time>
      </trkpt>
      <trkpt lat="43.61214" lon="6.90013">
        <ele>166</ele>
        <time>2012-06-19T17:13:14Z</time>
      </trkpt>
      <trkpt lat="43.61224" lon="6.8999">
        <ele>169</ele>
        <time>2012-06-19T17:13:23Z</time>
      </trkpt>
      <trkpt lat="43.61241" lon="6.89959">
        <ele>172</ele>
        <time>2012-06-19T17:13:32Z</time>
      </trkpt>
      <trkpt lat="43.61256" lon="6.8993">
        <ele>174</ele>
        <time>2012-06-19T17:13:41Z</time>
      </trkpt>
      <trkpt lat="43.61273" lon="6.899">
        <ele>176</ele>
        <time>2012-06-19T17:13:50Z</time>
      </trkpt>
      <trkpt lat="43.61296" lon="6.89881">
        <ele>179</ele>
        <time>2012-06-19T17:13:59Z</time>
      </trkpt>
      <trkpt lat="43.61322" lon="6.89871">
        <ele>180</ele>
        <time>2012-06-19T17:14:08Z</time>
      </trkpt>
      <trkpt lat="43.61351" lon="6.89868">
        <ele>181</ele>
        <time>2012-06-19T17:14:17Z</time>
      </trkpt>
      <trkpt lat="43.61383" lon="6.89874">
        <ele>181</ele>
        <time>2012-06-19T17:14:26Z</time>
      </trkpt>
      <trkpt lat="43.61415" lon="6.8989">
        <ele>181</ele>
        <time>2012-06-19T17:14:35Z</time>
      </trkpt>
      <trkpt lat="43.61465" lon="6.8989">
        <ele>181</ele>
        <time>2012-06-19T17:14:44Z</time>
      </trkpt>
      <trkpt lat="43.61482" lon="6.89843">
        <ele>182</ele>
        <time>2012-06-19T17:14:53Z</time>
      </trkpt>
      <trkpt lat="43.61509" lon="6.89822">
        <ele>183</ele>
        <time>2012-06-19T17:15:02Z</time>
      </trkpt>
      <trkpt lat="43.61542" lon="6.89819">
        <ele>183</ele>
        <time>2012-06-19T17:15:11Z</time>
      </trkpt>
      <trkpt lat="43.61575" lon="6.89818">
        <ele>184</ele>
        <time>2012-06-19T17:15:20Z</time>
      </trkpt>
      <trkpt lat="43.61607" lon="6.89824">
        <ele>184</ele>
        <time>2012-06-19T17:15:29Z</time>
      </trkpt>
      <trkpt lat="43.61639" lon="6.89843">
        <ele>184</ele>
        <time>2012-06-19T17:15:38Z</time>
      </trkpt>
      <trkpt lat="43.61668" lon="6.89874">
        <ele>184</ele>
        <time>2012-06-19T17:15:47Z</time>
      </trkpt>
      <trkpt lat="43.61696" lon="6.89894">
        <ele>184</ele>
        <time>2012-06-19T17:15:56Z</time>
      </trkpt>
      <trkpt lat="43.61731" lon="6.89879">
        <ele>184</ele>
        <time>2012-06-19T17:16:05Z</time>
      </trkpt>
      <trkpt lat="43.61746" lon="6.89806">
        <ele>184</ele>
        <time>2012-06-19T17:16:14Z</time>
      </trkpt>
      <trkpt lat="43.6177" lon="6.89763">
        <ele>184</ele>
        <time>2012-06-19T17:16:23Z</time>
      </trkpt>
      <trkpt lat="43.61804" lon="6.89758">
        <ele>185</ele>
        <time>2012-06-19T17:16:32Z</time>
      </trkpt>
      <trkpt lat="43.61834" lon="6.89756">
        <ele>187</ele>
        <time>2012-06-19T17:16:41Z</time>
      </trkpt>
      <trkpt lat="43.61865" lon="6.89739">
        <ele>188</ele>
        <time>2012-06-19T17:16:50Z</time>
      </trkpt>
      <trkpt lat="43.61895" lon="6.89739">
        <ele>191</ele>
        <time>2012-06-19T17:16:59Z</time>
      </trkpt>
      <trkpt lat="43.61921" lon="6.8973">
        <ele>196</ele>
        <time>2012-06-19T17:17:08Z</time>
      </trkpt>
      <trkpt lat="43.61947" lon="6.8973">
        <ele>205</ele>
        <time>2012-06-19T17:17:17Z</time>
      </trkpt>
      <trkpt lat="43.61975" lon="6.89711">
        <ele>211</ele>
        <time>2012-06-19T17:17:26Z</time>
      </trkpt>
      <trkpt lat="43.62002" lon="6.89694">
        <ele>215</ele>
        <time>2012-06-19T17:17:35Z</time>
      </trkpt>
      <trkpt lat="43.62027" lon="6.89685">
        <ele>211</ele>
        <time>2012-06-19T17:17:44Z</time>
      </trkpt>
      <trkpt lat="43.6205" lon="6.89683">
        <ele>214</ele>
        <time>2012-06-19T17:17:53Z</time>
      </trkpt>
      <trkpt lat="43.62077" lon="6.89676">
        <ele>218</ele>
        <time>2012-06-19T17:18:02Z</time>
      </trkpt>
      <trkpt lat="43.62103" lon="6.8967">
        <ele>217</ele>
        <time>2012-06-19T17:18:11Z</time>
      </trkpt>
      <trkpt lat="43.62126" lon="6.89665">
        <ele>216</ele>
        <time>2012-06-19T17:18:20Z</time>
      </trkpt>
      <trkpt lat="43.62148" lon="6.8966">
        <ele>214</ele>
        <time>2012-06-19T17:18:29Z</time>
      </trkpt>
      <trkpt lat="43.62167" lon="6.89663">
        <ele>212</ele>
        <time>2012-06-19T17:18:38Z</time>
      </trkpt>
      <trkpt lat="43.62189" lon="6.89662">
        <ele>210</ele>
        <time>2012-06-19T17:18:47Z</time>
      </trkpt>
      <trkpt lat="43.62196" lon="6.89672">
        <ele>210</ele>
        <time>2012-06-19T17:18:56Z</time>
      </trkpt>
      <trkpt lat="43.62188" lon="6.8969">
        <ele>210</ele>
        <time>2012-06-19T17:19:05Z</time>
      </trkpt>
      <trkpt lat="43.62186" lon="6.89709">
        <ele>210</ele>
        <time>2012-06-19T17:19:14Z</time>
      </trkpt>
      <trkpt lat="43.62181" lon="6.89726">
        <ele>210</ele>
        <time>2012-06-19T17:19:23Z</time>
      </trkpt>
      <trkpt lat="43.62178" lon="6.89742">
        <ele>211</ele>
        <time>2012-06-19T17:19:32Z</time>
      </trkpt>
      <trkpt lat="43.62169" lon="6.89757">
        <ele>215</ele>
        <time>2012-06-19T17:19:41Z</time>
      </trkpt>
      <trkpt lat="43.62158" lon="6.8977">
        <ele>218</ele>
        <time>2012-06-19T17:19:50Z</time>
      </trkpt>
      <trkpt lat="43.62149" lon="6.89782">
        <ele>221</ele>
        <time>2012-06-19T17:19:59Z</time>
      </trkpt>
      <trkpt lat="43.62138" lon="6.898">
        <ele>222</ele>
        <time>2012-06-19T17:20:08Z</time>
      </trkpt>
      <trkpt lat="43.62127" lon="6.89817">
        <ele>222</ele>
        <time>2012-06-19T17:20:17Z</time>
      </trkpt>
      <trkpt lat="43.62116" lon="6.89838">
        <ele>224</ele>
        <time>2012-06-19T17:20:26Z</time>
      </trkpt>
      <trkpt lat="43.62102" lon="6.89865">
        <ele>225</ele>
        <time>2012-06-19T17:20:35Z</time>
      </trkpt>
      <trkpt lat="43.62082" lon="6.89885">
        <ele>225</ele>
        <time>2012-06-19T17:20:44Z</time>
      </trkpt>
      <trkpt lat="43.62064" lon="6.89904">
        <ele>225</ele>
        <time>2012-06-19T17:20:53Z</time>
      </trkpt>
      <trkpt lat="43.62056" lon="6.89925">
        <ele>225</ele>
        <time>2012-06-19T17:21:02Z</time>
      </trkpt>
      <trkpt lat="43.62048" lon="6.89947">
        <ele>226</ele>
        <time>2012-06-19T17:21:11Z</time>
      </trkpt>
      <trkpt lat="43.62039" lon="6.89965">
        <ele>228</ele>
        <time>2012-06-19T17:21:20Z</time>
      </trkpt>
      <trkpt lat="43.62031" lon="6.89986">
        <ele>231</ele>
        <time>2012-06-19T17:21:29Z</time>
      </trkpt>
      <trkpt lat="43.62025" lon="6.90004">
        <ele>234</ele>
        <time>2012-06-19T17:21:38Z</time>
      </trkpt>
      <trkpt lat="43.62019" lon="6.90023">
        <ele>237</ele>
        <time>2012-06-19T17:21:47Z</time>
      </trkpt>
      <trkpt lat="43.62013" lon="6.90042">
        <ele>240</ele>
        <time>2012-06-19T17:21:56Z</time>
      </trkpt>
      <trkpt lat="43.62005" lon="6.90062">
        <ele>243</ele>
        <time>2012-06-19T17:22:05Z</time>
      </trkpt>
      <trkpt lat="43.61998" lon="6.90084">
        <ele>244</ele>
        <time>2012-06-19T17:22:14Z</time>
      </trkpt>
      <trkpt lat="43.61989" lon="6.90109">
        <ele>245</ele>
        <time>2012-06-19T17:22:23Z</time>
      </trkpt>
      <trkpt lat="43.61984" lon="6.90132">
        <ele>247</ele>
        <time>2012-06-19T17:22:32Z</time>
      </trkpt>
      <trkpt lat="43.61973" lon="6.90156">
        <ele>247</ele>
        <time>2012-06-19T17:22:41Z</time>
      </trkpt>
      <trkpt lat="43.6196" lon="6.90192">
        <ele>247</ele>
        <time>2012-06-19T17:22:50Z</time>
      </trkpt>
      <trkpt lat="43.61955" lon="6.90232">
        <ele>247</ele>
        <time>2012-06-19T17:22:59Z</time>
      </trkpt>
      <trkpt lat="43.61946" lon="6.90276">
        <ele>247</ele>
        <time>2012-06-19T17:23:08Z</time>
      </trkpt>
      <trkpt lat="43.6194" lon="6.90318">
        <ele>247</ele>
        <time>2012-06-19T17:23:17Z</time>
      </trkpt>
      <trkpt lat="43.61935" lon="6.90349">
        <ele>248</ele>
        <time>2012-06-19T17:23:26Z</time>
      </trkpt>
      <trkpt lat="43.61924" lon="6.9038">
        <ele>249</ele>
        <time>2012-06-19T17:23:35Z</time>
      </trkpt>
      <trkpt lat="43.61914" lon="6.90408">
        <ele>250</ele>
        <time>2012-06-19T17:23:44Z</time>
      </trkpt>
      <trkpt lat="43.61902" lon="6.90401">
        <ele>251</ele>
        <time>2012-06-19T17:23:53Z</time>
      </trkpt>
      <trkpt lat="43.61889" lon="6.90386">
        <ele>251</ele>
        <time>2012-06-19T17:24:02Z</time>
      </trkpt>
      <trkpt lat="43.61878" lon="6.90372">
        <ele>253</ele>
        <time>2012-06-19T17:24:11Z</time>
      </trkpt>
      <trkpt lat="43.61868" lon="6.90357">
        <ele>254</ele>
        <time>2012-06-19T17:24:20Z</time>
      </trkpt>
      <trkpt lat="43.61858" lon="6.90344">
        <ele>257</ele>
        <time>2012-06-19T17:24:29Z</time>
      </trkpt>
      <trkpt lat="43.61848" lon="6.90331">
        <ele>259</ele>
        <time>2012-06-19T17:24:39Z</time>
      </trkpt>
      <trkpt lat="43.6184" lon="6.90323">
        <ele>263</ele>
        <time>2012-06-19T17:24:51Z</time>
      </trkpt>
      <trkpt lat="43.61833" lon="6.90318">
        <ele>264</ele>
        <time>2012-06-19T17:25:01Z</time>
      </trkpt>
      <trkpt lat="43.61831" lon="6.90311">
        <ele>266</ele>
        <time>2012-06-19T17:25:11Z</time>
      </trkpt>
      <trkpt lat="43.61818" lon="6.90302">
        <ele>268</ele>
        <time>2012-06-19T17:25:21Z</time>
      </trkpt>
      <trkpt lat="43.61807" lon="6.90294">
        <ele>270</ele>
        <time>2012-06-19T17:25:30Z</time>
      </trkpt>
      <trkpt lat="43.61797" lon="6.90286">
        <ele>271</ele>
        <time>2012-06-19T17:25:39Z</time>
      </trkpt>
      <trkpt lat="43.61785" lon="6.90275">
        <ele>273</ele>
        <time>2012-06-19T17:25:48Z</time>
      </trkpt>
      <trkpt lat="43.61772" lon="6.90258">
        <ele>275</ele>
        <time>2012-06-19T17:25:57Z</time>
      </trkpt>
      <trkpt lat="43.6176" lon="6.90242">
        <ele>277</ele>
        <time>2012-06-19T17:26:06Z</time>
      </trkpt>
      <trkpt lat="43.61745" lon="6.90226">
        <ele>279</ele>
        <time>2012-06-19T17:26:15Z</time>
      </trkpt>
      <trkpt lat="43.61731" lon="6.90213">
        <ele>280</ele>
        <time>2012-06-19T17:26:24Z</time>
      </trkpt>
      <trkpt lat="43.61726" lon="6.90209">
        <ele>282</ele>
        <time>2012-06-19T17:26:46Z</time>
      </trkpt>
      <trkpt lat="43.61727" lon="6.90207">
        <ele>285</ele>
        <time>2012-06-19T17:27:14Z</time>
      </trkpt>
      <trkpt lat="43.61729" lon="6.90205">
        <ele>285</ele>
        <time>2012-06-19T17:27:43Z</time>
      </trkpt>
      <trkpt lat="43.61726" lon="6.90175">
        <ele>285</ele>
        <time>2012-06-19T17:27:52Z</time>
      </trkpt>
      <trkpt lat="43.61692" lon="6.90157">
        <ele>282</ele>
        <time>2012-06-19T17:28:01Z</time>
      </trkpt>
      <trkpt lat="43.61664" lon="6.90121">
        <ele>274</ele>
        <time>2012-06-19T17:28:10Z</time>
      </trkpt>
      <trkpt lat="43.61657" lon="6.90109">
        <ele>271</ele>
        <time>2012-06-19T17:28:19Z</time>
      </trkpt>
      <trkpt lat="43.61616" lon="6.90068">
        <ele>263</ele>
        <time>2012-06-19T17:28:28Z</time>
      </trkpt>
      <trkpt lat="43.61573" lon="6.90047">
        <ele>259</ele>
        <time>2012-06-19T17:28:37Z</time>
      </trkpt>
      <trkpt lat="43.61568" lon="6.90051">
        <ele>259</ele>
        <time>2012-06-19T17:28:58Z</time>
      </trkpt>
      <trkpt lat="43.61566" lon="6.9005">
        <ele>259</ele>
        <time>2012-06-19T17:29:10Z</time>
      </trkpt>
      <trkpt lat="43.61568" lon="6.90038">
        <ele>257</ele>
        <time>2012-06-19T17:29:19Z</time>
      </trkpt>
      <trkpt lat="43.61563" lon="6.90025">
        <ele>254</ele>
        <time>2012-06-19T17:29:28Z</time>
      </trkpt>
      <trkpt lat="43.61543" lon="6.90026">
        <ele>249</ele>
        <time>2012-06-19T17:29:37Z</time>
      </trkpt>
      <trkpt lat="43.6153" lon="6.90021">
        <ele>242</ele>
        <time>2012-06-19T17:29:47Z</time>
      </trkpt>
      <trkpt lat="43.6153" lon="6.90019">
        <ele>242</ele>
        <time>2012-06-19T17:30:00Z</time>
      </trkpt>
      <trkpt lat="43.61531" lon="6.90021">
        <ele>242</ele>
        <time>2012-06-19T17:30:27Z</time>
      </trkpt>
      <trkpt lat="43.61531" lon="6.90022">
        <ele>242</ele>
        <time>2012-06-19T17:30:58Z</time>
      </trkpt>
      <trkpt lat="43.6153" lon="6.90021">
        <ele>241</ele>
        <time>2012-06-19T17:31:38Z</time>
      </trkpt>
      <trkpt lat="43.61531" lon="6.90021">
        <ele>241</ele>
        <time>2012-06-19T17:32:00Z</time>
      </trkpt>
      <trkpt lat="43.61532" lon="6.90022">
        <ele>241</ele>
        <time>2012-06-19T17:33:01Z</time>
      </trkpt>
      <trkpt lat="43.61532" lon="6.90022">
        <ele>241</ele>
        <time>2012-06-19T17:33:22Z</time>
      </trkpt>
      <trkpt lat="43.61532" lon="6.9002">
        <ele>241</ele>
        <time>2012-06-19T17:33:44Z</time>
      </trkpt>
      <trkpt lat="43.61531" lon="6.90021">
        <ele>242</ele>
        <time>2012-06-19T17:34:16Z</time>
      </trkpt>
      <trkpt lat="43.61532" lon="6.90021">
        <ele>242</ele>
        <time>2012-06-19T17:34:36Z</time>
      </trkpt>
      <trkpt lat="43.61531" lon="6.9002">
        <ele>243</ele>
        <time>2012-06-19T17:35:02Z</time>
      </trkpt>
      <trkpt lat="43.61532" lon="6.90021">
        <ele>243</ele>
        <time>2012-06-19T17:35:29Z</time>
      </trkpt>
      <trkpt lat="43.61532" lon="6.90023">
        <ele>243</ele>
        <time>2012-06-19T17:36:43Z</time>
      </trkpt>
      <trkpt lat="43.61531" lon="6.90021">
        <ele>243</ele>
        <time>2012-06-19T17:37:05Z</time>
      </trkpt>
      <trkpt lat="43.6153" lon="6.90023">
        <ele>243</ele>
        <time>2012-06-19T17:37:18Z</time>
      </trkpt>
      <trkpt lat="43.6153" lon="6.90023">
        <ele>240</ele>
        <time>2012-06-19T17:37:43Z</time>
      </trkpt>
      <trkpt lat="43.6153" lon="6.90022">
        <ele>240</ele>
        <time>2012-06-19T17:38:02Z</time>
      </trkpt>
      <trkpt lat="43.61531" lon="6.90023">
        <ele>240</ele>
        <time>2012-06-19T17:38:27Z</time>
      </trkpt>
      <trkpt lat="43.61531" lon="6.90023">
        <ele>239</ele>
        <time>2012-06-19T17:39:09Z</time>
      </trkpt>
      <trkpt lat="43.61532" lon="6.90022">
        <ele>239</ele>
        <time>2012-06-19T17:39:26Z</time>
      </trkpt>
      <trkpt lat="43.61533" lon="6.90018">
        <ele>240</ele>
        <time>2012-06-19T17:39:37Z</time>
      </trkpt>
      <trkpt lat="43.61534" lon="6.90009">
        <ele>240</ele>
        <time>2012-06-19T17:39:47Z</time>
      </trkpt>
      <trkpt lat="43.61549" lon="6.89996">
        <ele>240</ele>
        <time>2012-06-19T17:39:56Z</time>
      </trkpt>
      <trkpt lat="43.61567" lon="6.89992">
        <ele>240</ele>
        <time>2012-06-19T17:40:05Z</time>
      </trkpt>
      <trkpt lat="43.61587" lon="6.89974">
        <ele>240</ele>
        <time>2012-06-19T17:40:14Z</time>
      </trkpt>
      <trkpt lat="43.61613" lon="6.89968">
        <ele>237</ele>
        <time>2012-06-19T17:40:23Z</time>
      </trkpt>
      <trkpt lat="43.61631" lon="6.89964">
        <ele>227</ele>
        <time>2012-06-19T17:40:33Z</time>
      </trkpt>
      <trkpt lat="43.61639" lon="6.89962">
        <ele>222</ele>
        <time>2012-06-19T17:40:42Z</time>
      </trkpt>
      <trkpt lat="43.61669" lon="6.89959">
        <ele>218</ele>
        <time>2012-06-19T17:40:51Z</time>
      </trkpt>
      <trkpt lat="43.61682" lon="6.89942">
        <ele>213</ele>
        <time>2012-06-19T17:41:00Z</time>
      </trkpt>
      <trkpt lat="43.61682" lon="6.89929">
        <ele>208</ele>
        <time>2012-06-19T17:41:10Z</time>
      </trkpt>
      <trkpt lat="43.61685" lon="6.89922">
        <ele>205</ele>
        <time>2012-06-19T17:41:20Z</time>
      </trkpt>
      <trkpt lat="43.61684" lon="6.89912">
        <ele>201</ele>
        <time>2012-06-19T17:41:31Z</time>
      </trkpt>
      <trkpt lat="43.61697" lon="6.89912">
        <ele>201</ele>
        <time>2012-06-19T17:41:40Z</time>
      </trkpt>
      <trkpt lat="43.61702" lon="6.8991">
        <ele>197</ele>
        <time>2012-06-19T17:41:52Z</time>
      </trkpt>
      <trkpt lat="43.61712" lon="6.8991">
        <ele>193</ele>
        <time>2012-06-19T17:42:01Z</time>
      </trkpt>
      <trkpt lat="43.61712" lon="6.89902">
        <ele>192</ele>
        <time>2012-06-19T17:42:13Z</time>
      </trkpt>
      <trkpt lat="43.61704" lon="6.89898">
        <ele>190</ele>
        <time>2012-06-19T17:42:26Z</time>
      </trkpt>
      <trkpt lat="43.61705" lon="6.89899">
        <ele>188</ele>
        <time>2012-06-19T17:42:44Z</time>
      </trkpt>
      <trkpt lat="43.61705" lon="6.89898">
        <ele>188</ele>
        <time>2012-06-19T17:42:59Z</time>
      </trkpt>
      <trkpt lat="43.61706" lon="6.89898">
        <ele>188</ele>
        <time>2012-06-19T17:43:34Z</time>
      </trkpt>
      <trkpt lat="43.61706" lon="6.89901">
        <ele>185</ele>
        <time>2012-06-19T17:43:47Z</time>
      </trkpt>
      <trkpt lat="43.61706" lon="6.899">
        <ele>183</ele>
        <time>2012-06-19T17:44:01Z</time>
      </trkpt>
      <trkpt lat="43.61706" lon="6.89898">
        <ele>184</ele>
        <time>2012-06-19T17:44:13Z</time>
      </trkpt>
      <trkpt lat="43.61705" lon="6.89899">
        <ele>188</ele>
        <time>2012-06-19T17:44:59Z</time>
      </trkpt>
      <trkpt lat="43.61705" lon="6.89897">
        <ele>189</ele>
        <time>2012-06-19T17:45:11Z</time>
      </trkpt>
      <trkpt lat="43.61708" lon="6.89891">
        <ele>199</ele>
        <time>2012-06-19T17:45:21Z</time>
      </trkpt>
      <trkpt lat="43.61708" lon="6.89893">
        <ele>202</ele>
        <time>2012-06-19T17:45:31Z</time>
      </trkpt>
      <trkpt lat="43.61728" lon="6.89878">
        <ele>200</ele>
        <time>2012-06-19T17:45:40Z</time>
      </trkpt>
      <trkpt lat="43.61748" lon="6.89828">
        <ele>193</ele>
        <time>2012-06-19T17:45:49Z</time>
      </trkpt>
      <trkpt lat="43.61748" lon="6.89779">
        <ele>192</ele>
        <time>2012-06-19T17:45:58Z</time>
      </trkpt>
      <trkpt lat="43.61772" lon="6.89764">
        <ele>192</ele>
        <time>2012-06-19T17:46:07Z</time>
      </trkpt>
      <trkpt lat="43.61795" lon="6.89761">
        <ele>191</ele>
        <time>2012-06-19T17:46:16Z</time>
      </trkpt>
      <trkpt lat="43.61821" lon="6.89763">
        <ele>190</ele>
        <time>2012-06-19T17:46:25Z</time>
      </trkpt>
      <trkpt lat="43.61849" lon="6.89747">
        <ele>190</ele>
        <time>2012-06-19T17:46:34Z</time>
      </trkpt>
      <trkpt lat="43.61876" lon="6.89742">
        <ele>190</ele>
        <time>2012-06-19T17:46:43Z</time>
      </trkpt>
      <trkpt lat="43.61899" lon="6.8974">
        <ele>190</ele>
        <time>2012-06-19T17:46:52Z</time>
      </trkpt>
      <trkpt lat="43.61924" lon="6.89731">
        <ele>192</ele>
        <time>2012-06-19T17:47:01Z</time>
      </trkpt>
      <trkpt lat="43.61951" lon="6.89729">
        <ele>193</ele>
        <time>2012-06-19T17:47:10Z</time>
      </trkpt>
      <trkpt lat="43.61969" lon="6.89716">
        <ele>193</ele>
        <time>2012-06-19T17:47:19Z</time>
      </trkpt>
      <trkpt lat="43.61982" lon="6.89707">
        <ele>194</ele>
        <time>2012-06-19T17:47:28Z</time>
      </trkpt>
      <trkpt lat="43.62006" lon="6.89692">
        <ele>197</ele>
        <time>2012-06-19T17:47:37Z</time>
      </trkpt>
      <trkpt lat="43.6203" lon="6.89684">
        <ele>197</ele>
        <time>2012-06-19T17:47:46Z</time>
      </trkpt>
      <trkpt lat="43.62055" lon="6.8968">
        <ele>198</ele>
        <time>2012-06-19T17:47:55Z</time>
      </trkpt>
      <trkpt lat="43.62081" lon="6.89674">
        <ele>199</ele>
        <time>2012-06-19T17:48:04Z</time>
      </trkpt>
      <trkpt lat="43.62104" lon="6.89669">
        <ele>199</ele>
        <time>2012-06-19T17:48:13Z</time>
      </trkpt>
      <trkpt lat="43.62124" lon="6.89666">
        <ele>200</ele>
        <time>2012-06-19T17:48:22Z</time>
      </trkpt>
      <trkpt lat="43.62143" lon="6.89661">
        <ele>201</ele>
        <time>2012-06-19T17:48:31Z</time>
      </trkpt>
      <trkpt lat="43.62153" lon="6.89648">
        <ele>202</ele>
        <time>2012-06-19T17:48:40Z</time>
      </trkpt>
      <trkpt lat="43.62162" lon="6.89626">
        <ele>203</ele>
        <time>2012-06-19T17:48:49Z</time>
      </trkpt>
      <trkpt lat="43.62166" lon="6.8962">
        <ele>203</ele>
        <time>2012-06-19T17:49:04Z</time>
      </trkpt>
      <trkpt lat="43.62166" lon="6.89624">
        <ele>203</ele>
        <time>2012-06-19T17:49:16Z</time>
      </trkpt>
      <trkpt lat="43.62162" lon="6.89621">
        <ele>203</ele>
        <time>2012-06-19T17:49:25Z</time>
      </trkpt>
      <trkpt lat="43.6216" lon="6.89608">
        <ele>202</ele>
        <time>2012-06-19T17:49:34Z</time>
      </trkpt>
      <trkpt lat="43.62156" lon="6.89606">
        <ele>199</ele>
        <time>2012-06-19T17:49:50Z</time>
      </trkpt>
      <trkpt lat="43.62144" lon="6.89597">
        <ele>198</ele>
        <time>2012-06-19T17:49:59Z</time>
      </trkpt>
      <trkpt lat="43.62109" lon="6.89577">
        <ele>193</ele>
        <time>2012-06-19T17:50:08Z</time>
      </trkpt>
      <trkpt lat="43.62072" lon="6.89548">
        <ele>187</ele>
        <time>2012-06-19T17:50:17Z</time>
      </trkpt>
      <trkpt lat="43.62045" lon="6.89527">
        <ele>183</ele>
        <time>2012-06-19T17:50:26Z</time>
      </trkpt>
      <trkpt lat="43.62022" lon="6.89519">
        <ele>183</ele>
        <time>2012-06-19T17:50:35Z</time>
      </trkpt>
      <trkpt lat="43.62013" lon="6.89514">
        <ele>183</ele>
        <time>2012-06-19T17:50:44Z</time>
      </trkpt>
      <trkpt lat="43.6201" lon="6.89515">
        <ele>183</ele>
        <time>2012-06-19T17:50:55Z</time>
      </trkpt>
      <trkpt lat="43.61997" lon="6.89514">
        <ele>184</ele>
        <time>2012-06-19T17:51:04Z</time>
      </trkpt>
      <trkpt lat="43.61983" lon="6.89512">
        <ele>185</ele>
        <time>2012-06-19T17:51:13Z</time>
      </trkpt>
      <trkpt lat="43.61966" lon="6.89514">
        <ele>188</ele>
        <time>2012-06-19T17:51:22Z</time>
      </trkpt>
      <trkpt lat="43.61963" lon="6.89509">
        <ele>191</ele>
        <time>2012-06-19T17:51:34Z</time>
      </trkpt>
      <trkpt lat="43.61962" lon="6.89502">
        <ele>191</ele>
        <time>2012-06-19T17:51:43Z</time>
      </trkpt>
      <trkpt lat="43.61961" lon="6.89494">
        <ele>191</ele>
        <time>2012-06-19T17:51:53Z</time>
      </trkpt>
      <trkpt lat="43.61958" lon="6.89492">
        <ele>195</ele>
        <time>2012-06-19T17:52:11Z</time>
      </trkpt>
      <trkpt lat="43.61946" lon="6.89489">
        <ele>196</ele>
        <time>2012-06-19T17:52:20Z</time>
      </trkpt>
      <trkpt lat="43.61937" lon="6.89482">
        <ele>197</ele>
        <time>2012-06-19T17:52:31Z</time>
      </trkpt>
      <trkpt lat="43.61931" lon="6.89482">
        <ele>200</ele>
        <time>2012-06-19T17:52:43Z</time>
      </trkpt>
      <trkpt lat="43.61922" lon="6.89475">
        <ele>201</ele>
        <time>2012-06-19T17:52:52Z</time>
      </trkpt>
      <trkpt lat="43.61914" lon="6.89461">
        <ele>203</ele>
        <time>2012-06-19T17:53:01Z</time>
      </trkpt>
      <trkpt lat="43.6192" lon="6.89443">
        <ele>206</ele>
        <time>2012-06-19T17:53:11Z</time>
      </trkpt>
      <trkpt lat="43.61922" lon="6.89438">
        <ele>208</ele>
        <time>2012-06-19T17:53:22Z</time>
      </trkpt>
      <trkpt lat="43.61921" lon="6.89438">
        <ele>208</ele>
        <time>2012-06-19T17:53:31Z</time>
      </trkpt>
      <trkpt lat="43.6192" lon="6.89436">
        <ele>208</ele>
        <time>2012-06-19T17:53:53Z</time>
      </trkpt>
      <trkpt lat="43.61918" lon="6.89435">
        <ele>209</ele>
        <time>2012-06-19T17:54:46Z</time>
      </trkpt>
      <trkpt lat="43.61892" lon="6.89443">
        <ele>209</ele>
        <time>2012-06-19T17:54:55Z</time>
      </trkpt>
      <trkpt lat="43.61842" lon="6.89473">
        <ele>202</ele>
        <time>2012-06-19T17:55:04Z</time>
      </trkpt>
      <trkpt lat="43.61801" lon="6.89477">
        <ele>195</ele>
        <time>2012-06-19T17:55:13Z</time>
      </trkpt>
      <trkpt lat="43.61777" lon="6.89452">
        <ele>189</ele>
        <time>2012-06-19T17:55:22Z</time>
      </trkpt>
      <trkpt lat="43.61744" lon="6.89439">
        <ele>181</ele>
        <time>2012-06-19T17:55:31Z</time>
      </trkpt>
      <trkpt lat="43.61726" lon="6.8944">
        <ele>174</ele>
        <time>2012-06-19T17:55:41Z</time>
      </trkpt>
      <trkpt lat="43.61728" lon="6.8944">
        <ele>174</ele>
        <time>2012-06-19T17:55:54Z</time>
      </trkpt>
      <trkpt lat="43.61728" lon="6.89438">
        <ele>174</ele>
        <time>2012-06-19T17:56:03Z</time>
      </trkpt>
      <trkpt lat="43.61736" lon="6.8944">
        <ele>174</ele>
        <time>2012-06-19T17:56:13Z</time>
      </trkpt>
      <trkpt lat="43.61742" lon="6.89437">
        <ele>174</ele>
        <time>2012-06-19T17:56:22Z</time>
      </trkpt>
      <trkpt lat="43.61747" lon="6.89436">
        <ele>180</ele>
        <time>2012-06-19T17:56:50Z</time>
      </trkpt>
      <trkpt lat="43.61746" lon="6.89437">
        <ele>182</ele>
        <time>2012-06-19T17:57:14Z</time>
      </trkpt>
      <trkpt lat="43.61745" lon="6.89437">
        <ele>182</ele>
        <time>2012-06-19T17:57:29Z</time>
      </trkpt>
      <trkpt lat="43.61744" lon="6.89437">
        <ele>182</ele>
        <time>2012-06-19T17:57:48Z</time>
      </trkpt>
      <trkpt lat="43.61745" lon="6.89436">
        <ele>182</ele>
        <time>2012-06-19T17:58:04Z</time>
      </trkpt>
      <trkpt lat="43.61745" lon="6.89438">
        <ele>179</ele>
        <time>2012-06-19T17:59:55Z</time>
      </trkpt>
      <trkpt lat="43.61744" lon="6.89438">
        <ele>179</ele>
        <time>2012-06-19T18:00:14Z</time>
      </trkpt>
      <trkpt lat="43.61743" lon="6.89437">
        <ele>179</ele>
        <time>2012-06-19T18:00:25Z</time>
      </trkpt>
      <trkpt lat="43.61746" lon="6.89434">
        <ele>179</ele>
        <time>2012-06-19T18:00:37Z</time>
      </trkpt>
      <trkpt lat="43.61746" lon="6.89434">
        <ele>182</ele>
        <time>2012-06-19T18:00:56Z</time>
      </trkpt>
      <trkpt lat="43.61747" lon="6.89434">
        <ele>184</ele>
        <time>2012-06-19T18:01:09Z</time>
      </trkpt>
      <trkpt lat="43.61744" lon="6.89434">
        <ele>186</ele>
        <time>2012-06-19T18:01:18Z</time>
      </trkpt>
      <trkpt lat="43.61743" lon="6.89436">
        <ele>186</ele>
        <time>2012-06-19T18:01:32Z</time>
      </trkpt>
      <trkpt lat="43.61736" lon="6.89437">
        <ele>181</ele>
        <time>2012-06-19T18:01:41Z</time>
      </trkpt>
      <trkpt lat="43.61734" lon="6.89437">
        <ele>178</ele>
        <time>2012-06-19T18:01:54Z</time>
      </trkpt>
      <trkpt lat="43.6174" lon="6.89436">
        <ele>178</ele>
        <time>2012-06-19T18:02:05Z</time>
      </trkpt>
      <trkpt lat="43.61745" lon="6.89437">
        <ele>178</ele>
        <time>2012-06-19T18:02:14Z</time>
      </trkpt>
      <trkpt lat="43.61744" lon="6.89438">
        <ele>178</ele>
        <time>2012-06-19T18:02:28Z</time>
      </trkpt>
      <trkpt lat="43.61744" lon="6.89437">
        <ele>178</ele>
        <time>2012-06-19T18:02:41Z</time>
      </trkpt>
      <trkpt lat="43.61742" lon="6.89438">
        <ele>181</ele>
        <time>2012-06-19T18:03:07Z</time>
      </trkpt>
      <trkpt lat="43.61742" lon="6.89436">
        <ele>181</ele>
        <time>2012-06-19T18:03:30Z</time>
      </trkpt>
      <trkpt lat="43.61741" lon="6.89434">
        <ele>181</ele>
        <time>2012-06-19T18:03:44Z</time>
      </trkpt>
      <trkpt lat="43.61742" lon="6.89434">
        <ele>181</ele>
        <time>2012-06-19T18:03:55Z</time>
      </trkpt>
      <trkpt lat="43.61743" lon="6.89434">
        <ele>181</ele>
        <time>2012-06-19T18:04:17Z</time>
      </trkpt>
      <trkpt lat="43.61744" lon="6.89436">
        <ele>181</ele>
        <time>2012-06-19T18:04:29Z</time>
      </trkpt>
      <trkpt lat="43.61744" lon="6.89436">
        <ele>181</ele>
        <time>2012-06-19T18:04:54Z</time>
      </trkpt>
      <trkpt lat="43.61745" lon="6.89434">
        <ele>181</ele>
        <time>2012-06-19T18:05:03Z</time>
      </trkpt>
      <trkpt lat="43.61745" lon="6.89433">
        <ele>183</ele>
        <time>2012-06-19T18:05:14Z</time>
      </trkpt>
      <trkpt lat="43.61744" lon="6.89432">
        <ele>183</ele>
        <time>2012-06-19T18:05:29Z</time>
      </trkpt>
      <trkpt lat="43.61744" lon="6.89434">
        <ele>183</ele>
        <time>2012-06-19T18:05:46Z</time>
      </trkpt>
      <trkpt lat="43.61742" lon="6.8943">
        <ele>183</ele>
        <time>2012-06-19T18:05:55Z</time>
      </trkpt>
      <trkpt lat="43.61742" lon="6.89431">
        <ele>183</ele>
        <time>2012-06-19T18:06:09Z</time>
      </trkpt>
      <trkpt lat="43.61742" lon="6.89435">
        <ele>183</ele>
        <time>2012-06-19T18:06:20Z</time>
      </trkpt>
      <trkpt lat="43.61742" lon="6.89433">
        <ele>183</ele>
        <time>2012-06-19T18:06:34Z</time>
      </trkpt>
      <trkpt lat="43.61741" lon="6.89434">
        <ele>181</ele>
        <time>2012-06-19T18:06:51Z</time>
      </trkpt>
      <trkpt lat="43.61742" lon="6.89435">
        <ele>181</ele>
        <time>2012-06-19T18:07:05Z</time>
      </trkpt>
      <trkpt lat="43.61742" lon="6.89438">
        <ele>181</ele>
        <time>2012-06-19T18:07:25Z</time>
      </trkpt>
      <trkpt lat="43.61743" lon="6.89437">
        <ele>181</ele>
        <time>2012-06-19T18:07:49Z</time>
      </trkpt>
      <trkpt lat="43.61742" lon="6.89436">
        <ele>181</ele>
        <time>2012-06-19T18:08:10Z</time>
      </trkpt>
      <trkpt lat="43.61743" lon="6.89434">
        <ele>181</ele>
        <time>2012-06-19T18:08:20Z</time>
      </trkpt>
      <trkpt lat="43.61744" lon="6.89432">
        <ele>181</ele>
        <time>2012-06-19T18:08:37Z</time>
      </trkpt>
      <trkpt lat="43.61744" lon="6.89434">
        <ele>181</ele>
        <time>2012-06-19T18:09:15Z</time>
      </trkpt>
      <trkpt lat="43.61745" lon="6.89433">
        <ele>181</ele>
        <time>2012-06-19T18:09:39Z</time>
      </trkpt>
      <trkpt lat="43.61745" lon="6.89435">
        <ele>182</ele>
        <time>2012-06-19T18:10:03Z</time>
      </trkpt>
      <trkpt lat="43.61746" lon="6.89436">
        <ele>182</ele>
        <time>2012-06-19T18:10:24Z</time>
      </trkpt>
      <trkpt lat="43.61745" lon="6.89438">
        <ele>181</ele>
        <time>2012-06-19T18:10:34Z</time>
      </trkpt>
      <trkpt lat="43.61742" lon="6.89437">
        <ele>180</ele>
        <time>2012-06-19T18:10:43Z</time>
      </trkpt>
      <trkpt lat="43.61745" lon="6.8944">
        <ele>179</ele>
        <time>2012-06-19T18:10:52Z</time>
      </trkpt>
      <trkpt lat="43.61744" lon="6.89438">
        <ele>180</ele>
        <time>2012-06-19T18:11:07Z</time>
      </trkpt>
      <trkpt lat="43.61745" lon="6.89435">
        <ele>183</ele>
        <time>2012-06-19T18:11:16Z</time>
      </trkpt>
      <trkpt lat="43.61742" lon="6.8943">
        <ele>183</ele>
        <time>2012-06-19T18:11:27Z</time>
      </trkpt>
      <trkpt lat="43.61742" lon="6.89429">
        <ele>183</ele>
        <time>2012-06-19T18:11:51Z</time>
      </trkpt>
      <trkpt lat="43.61743" lon="6.89431">
        <ele>183</ele>
        <time>2012-06-19T18:12:09Z</time>
      </trkpt>
      <trkpt lat="43.61743" lon="6.89433">
        <ele>183</ele>
        <time>2012-06-19T18:12:32Z</time>
      </trkpt>
      <trkpt lat="43.6174" lon="6.89433">
        <ele>183</ele>
        <time>2012-06-19T18:12:44Z</time>
      </trkpt>
      <trkpt lat="43.61737" lon="6.89437">
        <ele>180</ele>
        <time>2012-06-19T18:12:54Z</time>
      </trkpt>
      <trkpt lat="43.61731" lon="6.89434">
        <ele>176</ele>
        <time>2012-06-19T18:13:04Z</time>
      </trkpt>
      <trkpt lat="43.61727" lon="6.89439">
        <ele>176</ele>
        <time>2012-06-19T18:13:13Z</time>
      </trkpt>
      <trkpt lat="43.61727" lon="6.8944">
        <ele>176</ele>
        <time>2012-06-19T18:13:37Z</time>
      </trkpt>
      <trkpt lat="43.61716" lon="6.89462">
        <ele>174</ele>
        <time>2012-06-19T18:13:46Z</time>
      </trkpt>
      <trkpt lat="43.61705" lon="6.89438">
        <ele>171</ele>
        <time>2012-06-19T18:13:55Z</time>
      </trkpt>
      <trkpt lat="43.61696" lon="6.89419">
        <ele>164</ele>
        <time>2012-06-19T18:14:04Z</time>
      </trkpt>
      <trkpt lat="43.6168" lon="6.89429">
        <ele>158</ele>
        <time>2012-06-19T18:14:13Z</time>
      </trkpt>
      <trkpt lat="43.61683" lon="6.89389">
        <ele>154</ele>
        <time>2012-06-19T18:14:24Z</time>
      </trkpt>
      <trkpt lat="43.61682" lon="6.89391">
        <ele>154</ele>
        <time>2012-06-19T18:14:44Z</time>
      </trkpt>
      <trkpt lat="43.61677" lon="6.89381">
        <ele>154</ele>
        <time>2012-06-19T18:14:53Z</time>
      </trkpt>
      <trkpt lat="43.61652" lon="6.8937">
        <ele>154</ele>
        <time>2012-06-19T18:15:02Z</time>
      </trkpt>
      <trkpt lat="43.61618" lon="6.89369">
        <ele>151</ele>
        <time>2012-06-19T18:15:11Z</time>
      </trkpt>
      <trkpt lat="43.61578" lon="6.89407">
        <ele>146</ele>
        <time>2012-06-19T18:15:20Z</time>
      </trkpt>
      <trkpt lat="43.6153" lon="6.89421">
        <ele>145</ele>
        <time>2012-06-19T18:15:29Z</time>
      </trkpt>
      <trkpt lat="43.61493" lon="6.89431">
        <ele>141</ele>
        <time>2012-06-19T18:15:38Z</time>
      </trkpt>
      <trkpt lat="43.61462" lon="6.89449">
        <ele>138</ele>
        <time>2012-06-19T18:15:47Z</time>
      </trkpt>
      <trkpt lat="43.61447" lon="6.89456">
        <ele>132</ele>
        <time>2012-06-19T18:15:56Z</time>
      </trkpt>
      <trkpt lat="43.61425" lon="6.8945">
        <ele>126</ele>
        <time>2012-06-19T18:16:05Z</time>
      </trkpt>
      <trkpt lat="43.61396" lon="6.89438">
        <ele>118</ele>
        <time>2012-06-19T18:16:14Z</time>
      </trkpt>
      <trkpt lat="43.61351" lon="6.89428">
        <ele>109</ele>
        <time>2012-06-19T18:16:23Z</time>
      </trkpt>
      <trkpt lat="43.61305" lon="6.89411">
        <ele>100</ele>
        <time>2012-06-19T18:16:32Z</time>
      </trkpt>
      <trkpt lat="43.61287" lon="6.89401">
        <ele>86</ele>
        <time>2012-06-19T18:16:46Z</time>
      </trkpt>
      <trkpt lat="43.61275" lon="6.894">
        <ele>84</ele>
        <time>2012-06-19T18:16:55Z</time>
      </trkpt>
      <trkpt lat="43.61263" lon="6.89386">
        <ele>80</ele>
        <time>2012-06-19T18:17:04Z</time>
      </trkpt>
      <trkpt lat="43.61269" lon="6.89338">
        <ele>73</ele>
        <time>2012-06-19T18:17:13Z</time>
      </trkpt>
      <trkpt lat="43.61278" lon="6.89303">
        <ele>67</ele>
        <time>2012-06-19T18:17:22Z</time>
      </trkpt>
      <trkpt lat="43.61256" lon="6.89314">
        <ele>61</ele>
        <time>2012-06-19T18:17:31Z</time>
      </trkpt>
      <trkpt lat="43.61268" lon="6.89272">
        <ele>54</ele>
        <time>2012-06-19T18:17:40Z</time>
      </trkpt>
      <trkpt lat="43.61258" lon="6.8926">
        <ele>47</ele>
        <time>2012-06-19T18:17:49Z</time>
      </trkpt>
      <trkpt lat="43.6123" lon="6.89267">
        <ele>44</ele>
        <time>2012-06-19T18:17:58Z</time>
      </trkpt>
      <trkpt lat="43.61224" lon="6.89269">
        <ele>38</ele>
        <time>2012-06-19T18:18:07Z</time>
      </trkpt>
      <trkpt lat="43.61219" lon="6.89269">
        <ele>36</ele>
        <time>2012-06-19T18:18:16Z</time>
      </trkpt>
      <trkpt lat="43.61217" lon="6.89256">
        <ele>31</ele>
        <time>2012-06-19T18:18:26Z</time>
      </trkpt>
      <trkpt lat="43.61211" lon="6.89252">
        <ele>29</ele>
        <time>2012-06-19T18:18:35Z</time>
      </trkpt>
      <trkpt lat="43.6121" lon="6.89253">
        <ele>29</ele>
        <time>2012-06-19T18:18:53Z</time>
      </trkpt>
      <trkpt lat="43.61211" lon="6.89252">
        <ele>30</ele>
        <time>2012-06-19T18:19:25Z</time>
      </trkpt>
      <trkpt lat="43.61209" lon="6.89255">
        <ele>31</ele>
        <time>2012-06-19T18:19:34Z</time>
      </trkpt>
      <trkpt lat="43.61208" lon="6.89256">
        <ele>34</ele>
        <time>2012-06-19T18:19:45Z</time>
      </trkpt>
      <trkpt lat="43.6121" lon="6.89253">
        <ele>35</ele>
        <time>2012-06-19T18:19:59Z</time>
      </trkpt>
      <trkpt lat="43.61213" lon="6.89253">
        <ele>35</ele>
        <time>2012-06-19T18:20:11Z</time>
      </trkpt>
      <trkpt lat="43.61209" lon="6.89255">
        <ele>35</ele>
        <time>2012-06-19T18:20:28Z</time>
      </trkpt>
      <trkpt lat="43.61212" lon="6.89254">
        <ele>34</ele>
        <time>2012-06-19T18:20:38Z</time>
      </trkpt>
      <trkpt lat="43.61211" lon="6.89253">
        <ele>32</ele>
        <time>2012-06-19T18:20:48Z</time>
      </trkpt>
      <trkpt lat="43.6121" lon="6.89255">
        <ele>29</ele>
        <time>2012-06-19T18:21:36Z</time>
      </trkpt>
      <trkpt lat="43.61206" lon="6.89252">
        <ele>29</ele>
        <time>2012-06-19T18:21:45Z</time>
      </trkpt>
      <trkpt lat="43.61211" lon="6.8926">
        <ele>29</ele>
        <time>2012-06-19T18:21:54Z</time>
      </trkpt>
      <trkpt lat="43.61209" lon="6.89262">
        <ele>29</ele>
        <time>2012-06-19T18:22:03Z</time>
      </trkpt>
      <trkpt lat="43.6121" lon="6.89286">
        <ele>29</ele>
        <time>2012-06-19T18:22:13Z</time>
      </trkpt>
      <trkpt lat="43.61214" lon="6.8931">
        <ele>27</ele>
        <time>2012-06-19T18:22:22Z</time>
      </trkpt>
      <trkpt lat="43.61215" lon="6.89337">
        <ele>26</ele>
        <time>2012-06-19T18:22:31Z</time>
      </trkpt>
      <trkpt lat="43.61209" lon="6.89369">
        <ele>26</ele>
        <time>2012-06-19T18:22:40Z</time>
      </trkpt>
      <trkpt lat="43.61198" lon="6.89397">
        <ele>26</ele>
        <time>2012-06-19T18:22:49Z</time>
      </trkpt>
      <trkpt lat="43.6118" lon="6.89438">
        <ele>26</ele>
        <time>2012-06-19T18:22:58Z</time>
      </trkpt>
      <trkpt lat="43.61155" lon="6.89463">
        <ele>26</ele>
        <time>2012-06-19T18:23:07Z</time>
      </trkpt>
      <trkpt lat="43.61121" lon="6.89489">
        <ele>28</ele>
        <time>2012-06-19T18:23:16Z</time>
      </trkpt>
      <trkpt lat="43.61085" lon="6.89512">
        <ele>28</ele>
        <time>2012-06-19T18:23:25Z</time>
      </trkpt>
      <trkpt lat="43.61056" lon="6.89534">
        <ele>28</ele>
        <time>2012-06-19T18:23:34Z</time>
      </trkpt>
      <trkpt lat="43.61034" lon="6.89549">
        <ele>28</ele>
        <time>2012-06-19T18:23:43Z</time>
      </trkpt>
      <trkpt lat="43.61016" lon="6.89564">
        <ele>29</ele>
        <time>2012-06-19T18:23:53Z</time>
      </trkpt>
      <trkpt lat="43.60988" lon="6.89584">
        <ele>29</ele>
        <time>2012-06-19T18:24:02Z</time>
      </trkpt>
      <trkpt lat="43.60961" lon="6.89612">
        <ele>28</ele>
        <time>2012-06-19T18:24:11Z</time>
      </trkpt>
      <trkpt lat="43.6094" lon="6.89649">
        <ele>26</ele>
        <time>2012-06-19T18:24:20Z</time>
      </trkpt>
      <trkpt lat="43.60921" lon="6.89697">
        <ele>24</ele>
        <time>2012-06-19T18:24:30Z</time>
      </trkpt>
      <trkpt lat="43.60903" lon="6.89739">
        <ele>24</ele>
        <time>2012-06-19T18:24:39Z</time>
      </trkpt>
      <trkpt lat="43.60881" lon="6.89781">
        <ele>24</ele>
        <time>2012-06-19T18:24:49Z</time>
      </trkpt>
      <trkpt lat="43.60854" lon="6.89813">
        <ele>24</ele>
        <time>2012-06-19T18:24:58Z</time>
      </trkpt>
      <trkpt lat="43.6082" lon="6.89839">
        <ele>24</ele>
        <time>2012-06-19T18:25:08Z</time>
      </trkpt>
      <trkpt lat="43.60797" lon="6.89874">
        <ele>24</ele>
        <time>2012-06-19T18:25:17Z</time>
      </trkpt>
      <trkpt lat="43.60782" lon="6.89918">
        <ele>24</ele>
        <time>2012-06-19T18:25:26Z</time>
      </trkpt>
      <trkpt lat="43.60759" lon="6.89963">
        <ele>24</ele>
        <time>2012-06-19T18:25:36Z</time>
      </trkpt>
      <trkpt lat="43.60736" lon="6.90008">
        <ele>24</ele>
        <time>2012-06-19T18:25:46Z</time>
      </trkpt>
      <trkpt lat="43.60712" lon="6.90054">
        <ele>24</ele>
        <time>2012-06-19T18:25:56Z</time>
      </trkpt>
      <trkpt lat="43.60685" lon="6.90099">
        <ele>24</ele>
        <time>2012-06-19T18:26:06Z</time>
      </trkpt>
      <trkpt lat="43.60663" lon="6.90143">
        <ele>24</ele>
        <time>2012-06-19T18:26:16Z</time>
      </trkpt>
      <trkpt lat="43.60664" lon="6.90195">
        <ele>24</ele>
        <time>2012-06-19T18:26:25Z</time>
      </trkpt>
      <trkpt lat="43.60669" lon="6.9025">
        <ele>24</ele>
        <time>2012-06-19T18:26:35Z</time>
      </trkpt>
      <trkpt lat="43.60666" lon="6.90301">
        <ele>24</ele>
        <time>2012-06-19T18:26:45Z</time>
      </trkpt>
      <trkpt lat="43.60644" lon="6.90334">
        <ele>24</ele>
        <time>2012-06-19T18:26:54Z</time>
      </trkpt>
      <trkpt lat="43.60629" lon="6.90363">
        <ele>24</ele>
        <time>2012-06-19T18:27:03Z</time>
      </trkpt>
      <trkpt lat="43.60613" lon="6.90394">
        <ele>27</ele>
        <time>2012-06-19T18:27:13Z</time>
      </trkpt>
      <trkpt lat="43.60594" lon="6.90422">
        <ele>29</ele>
        <time>2012-06-19T18:27:22Z</time>
      </trkpt>
      <trkpt lat="43.60576" lon="6.90454">
        <ele>32</ele>
        <time>2012-06-19T18:27:32Z</time>
      </trkpt>
      <trkpt lat="43.60565" lon="6.90481">
        <ele>33</ele>
        <time>2012-06-19T18:27:41Z</time>
      </trkpt>
      <trkpt lat="43.60552" lon="6.9051">
        <ele>34</ele>
        <time>2012-06-19T18:27:50Z</time>
      </trkpt>
      <trkpt lat="43.6054" lon="6.90539">
        <ele>36</ele>
        <time>2012-06-19T18:27:59Z</time>
      </trkpt>
      <trkpt lat="43.60525" lon="6.90572">
        <ele>38</ele>
        <time>2012-06-19T18:28:09Z</time>
      </trkpt>
      <trkpt lat="43.6051" lon="6.90605">
        <ele>41</ele>
        <time>2012-06-19T18:28:19Z</time>
      </trkpt>
      <trkpt lat="43.60495" lon="6.90639">
        <ele>42</ele>
        <time>2012-06-19T18:28:29Z</time>
      </trkpt>
      <trkpt lat="43.60482" lon="6.90673">
        <ele>43</ele>
        <time>2012-06-19T18:28:39Z</time>
      </trkpt>
      <trkpt lat="43.60468" lon="6.90707">
        <ele>45</ele>
        <time>2012-06-19T18:28:49Z</time>
      </trkpt>
      <trkpt lat="43.60453" lon="6.9074">
        <ele>46</ele>
        <time>2012-06-19T18:28:59Z</time>
      </trkpt>
      <trkpt lat="43.6044" lon="6.90773">
        <ele>47</ele>
        <time>2012-06-19T18:29:08Z</time>
      </trkpt>
      <trkpt lat="43.60429" lon="6.90811">
        <ele>48</ele>
        <time>2012-06-19T18:29:17Z</time>
      </trkpt>
      <trkpt lat="43.6042" lon="6.90849">
        <ele>49</ele>
        <time>2012-06-19T18:29:26Z</time>
      </trkpt>
      <trkpt lat="43.60411" lon="6.90899">
        <ele>49</ele>
        <time>2012-06-19T18:29:36Z</time>
      </trkpt>
      <trkpt lat="43.60397" lon="6.90939">
        <ele>50</ele>
        <time>2012-06-19T18:29:46Z</time>
      </trkpt>
      <trkpt lat="43.60354" lon="6.90912">
        <ele>50</ele>
        <time>2012-06-19T18:29:56Z</time>
      </trkpt>
      <trkpt lat="43.60315" lon="6.90886">
        <ele>50</ele>
        <time>2012-06-19T18:30:06Z</time>
      </trkpt>
      <trkpt lat="43.60288" lon="6.90867">
        <ele>50</ele>
        <time>2012-06-19T18:30:16Z</time>
      </trkpt>
      <trkpt lat="43.60267" lon="6.90872">
        <ele>50</ele>
        <time>2012-06-19T18:30:26Z</time>
      </trkpt>
      <trkpt lat="43.60251" lon="6.90877">
        <ele>50</ele>
        <time>2012-06-19T18:30:36Z</time>
      </trkpt>
      <trkpt lat="43.6024" lon="6.90879">
        <ele>54</ele>
        <time>2012-06-19T18:30:45Z</time>
      </trkpt>
      <trkpt lat="43.60226" lon="6.90884">
        <ele>57</ele>
        <time>2012-06-19T18:30:54Z</time>
      </trkpt>
      <trkpt lat="43.60213" lon="6.90891">
        <ele>60</ele>
        <time>2012-06-19T18:31:03Z</time>
      </trkpt>
      <trkpt lat="43.60201" lon="6.90901">
        <ele>62</ele>
        <time>2012-06-19T18:31:12Z</time>
      </trkpt>
      <trkpt lat="43.60189" lon="6.90915">
        <ele>64</ele>
        <time>2012-06-19T18:31:21Z</time>
      </trkpt>
      <trkpt lat="43.60177" lon="6.90924">
        <ele>67</ele>
        <time>2012-06-19T18:31:31Z</time>
      </trkpt>
      <trkpt lat="43.60167" lon="6.90934">
        <ele>71</ele>
        <time>2012-06-19T18:31:41Z</time>
      </trkpt>
      <trkpt lat="43.60154" lon="6.90942">
        <ele>75</ele>
        <time>2012-06-19T18:31:50Z</time>
      </trkpt>
      <trkpt lat="43.60141" lon="6.90953">
        <ele>77</ele>
        <time>2012-06-19T18:31:59Z</time>
      </trkpt>
      <trkpt lat="43.60128" lon="6.90973">
        <ele>77</ele>
        <time>2012-06-19T18:32:08Z</time>
      </trkpt>
      <trkpt lat="43.60113" lon="6.90997">
        <ele>77</ele>
        <time>2012-06-19T18:32:17Z</time>
      </trkpt>
      <trkpt lat="43.60096" lon="6.9102">
        <ele>77</ele>
        <time>2012-06-19T18:32:26Z</time>
      </trkpt>
      <trkpt lat="43.6008" lon="6.91049">
        <ele>77</ele>
        <time>2012-06-19T18:32:35Z</time>
      </trkpt>
      <trkpt lat="43.60065" lon="6.91083">
        <ele>78</ele>
        <time>2012-06-19T18:32:44Z</time>
      </trkpt>
      <trkpt lat="43.60051" lon="6.91116">
        <ele>79</ele>
        <time>2012-06-19T18:32:53Z</time>
      </trkpt>
      <trkpt lat="43.60035" lon="6.91137">
        <ele>82</ele>
        <time>2012-06-19T18:33:02Z</time>
      </trkpt>
      <trkpt lat="43.60007" lon="6.91132">
        <ele>87</ele>
        <time>2012-06-19T18:33:11Z</time>
      </trkpt>
      <trkpt lat="43.59988" lon="6.91101">
        <ele>87</ele>
        <time>2012-06-19T18:33:20Z</time>
      </trkpt>
      <trkpt lat="43.59975" lon="6.91126">
        <ele>88</ele>
        <time>2012-06-19T18:33:29Z</time>
      </trkpt>
      <trkpt lat="43.59975" lon="6.91141">
        <ele>80</ele>
        <time>2012-06-19T18:33:38Z</time>
      </trkpt>
      <trkpt lat="43.59976" lon="6.91156">
        <ele>75</ele>
        <time>2012-06-19T18:33:47Z</time>
      </trkpt>
      <trkpt lat="43.59972" lon="6.91164">
        <ele>68</ele>
        <time>2012-06-19T18:33:57Z</time>
      </trkpt>
      <trkpt lat="43.60004" lon="6.91194">
        <ele>61</ele>
        <time>2012-06-19T18:34:06Z</time>
      </trkpt>
      <trkpt lat="43.60003" lon="6.91197">
        <ele>54</ele>
        <time>2012-06-19T18:34:15Z</time>
      </trkpt>
      <trkpt lat="43.59949" lon="6.91205">
        <ele>47</ele>
        <time>2012-06-19T18:34:24Z</time>
      </trkpt>
      <trkpt lat="43.5991" lon="6.91182">
        <ele>38</ele>
        <time>2012-06-19T18:34:33Z</time>
      </trkpt>
      <trkpt lat="43.59926" lon="6.91215">
        <ele>29</ele>
        <time>2012-06-19T18:34:42Z</time>
      </trkpt>
      <trkpt lat="43.59911" lon="6.91233">
        <ele>20</ele>
        <time>2012-06-19T18:34:51Z</time>
      </trkpt>
      <trkpt lat="43.59886" lon="6.91249">
        <ele>20</ele>
        <time>2012-06-19T18:35:00Z</time>
      </trkpt>
      <trkpt lat="43.59872" lon="6.91256">
        <ele>22</ele>
        <time>2012-06-19T18:35:10Z</time>
      </trkpt>
      <trkpt lat="43.59865" lon="6.91287">
        <ele>21</ele>
        <time>2012-06-19T18:35:19Z</time>
      </trkpt>
      <trkpt lat="43.59848" lon="6.9132">
        <ele>22</ele>
        <time>2012-06-19T18:35:28Z</time>
      </trkpt>
      <trkpt lat="43.59812" lon="6.91335">
        <ele>31</ele>
        <time>2012-06-19T18:35:37Z</time>
      </trkpt>
      <trkpt lat="43.59767" lon="6.91345">
        <ele>40</ele>
        <time>2012-06-19T18:35:46Z</time>
      </trkpt>
      <trkpt lat="43.59723" lon="6.91359">
        <ele>43</ele>
        <time>2012-06-19T18:35:55Z</time>
      </trkpt>
      <trkpt lat="43.59673" lon="6.91368">
        <ele>39</ele>
        <time>2012-06-19T18:36:04Z</time>
      </trkpt>
      <trkpt lat="43.59636" lon="6.91394">
        <ele>31</ele>
        <time>2012-06-19T18:36:13Z</time>
      </trkpt>
      <trkpt lat="43.59624" lon="6.9145">
        <ele>24</ele>
        <time>2012-06-19T18:36:22Z</time>
      </trkpt>
      <trkpt lat="43.59612" lon="6.91506">
        <ele>23</ele>
        <time>2012-06-19T18:36:31Z</time>
      </trkpt>
      <trkpt lat="43.59586" lon="6.91563">
        <ele>22</ele>
        <time>2012-06-19T18:36:40Z</time>
      </trkpt>
      <trkpt lat="43.59554" lon="6.91613">
        <ele>22</ele>
        <time>2012-06-19T18:36:49Z</time>
      </trkpt>
      <trkpt lat="43.59511" lon="6.9164">
        <ele>22</ele>
        <time>2012-06-19T18:36:58Z</time>
      </trkpt>
      <trkpt lat="43.59468" lon="6.91682">
        <ele>22</ele>
        <time>2012-06-19T18:37:07Z</time>
      </trkpt>
      <trkpt lat="43.59433" lon="6.91727">
        <ele>22</ele>
        <time>2012-06-19T18:37:16Z</time>
      </trkpt>
      <trkpt lat="43.59396" lon="6.91781">
        <ele>22</ele>
        <time>2012-06-19T18:37:25Z</time>
      </trkpt>
      <trkpt lat="43.59363" lon="6.91822">
        <ele>22</ele>
        <time>2012-06-19T18:37:34Z</time>
      </trkpt>
      <trkpt lat="43.59317" lon="6.91863">
        <ele>21</ele>
        <time>2012-06-19T18:37:43Z</time>
      </trkpt>
      <trkpt lat="43.59286" lon="6.91916">
        <ele>21</ele>
        <time>2012-06-19T18:37:52Z</time>
      </trkpt>
      <trkpt lat="43.59264" lon="6.91976">
        <ele>20</ele>
        <time>2012-06-19T18:38:01Z</time>
      </trkpt>
      <trkpt lat="43.59244" lon="6.92036">
        <ele>20</ele>
        <time>2012-06-19T18:38:10Z</time>
      </trkpt>
      <trkpt lat="43.59233" lon="6.92105">
        <ele>20</ele>
        <time>2012-06-19T18:38:19Z</time>
      </trkpt>
      <trkpt lat="43.59226" lon="6.92169">
        <ele>20</ele>
        <time>2012-06-19T18:38:28Z</time>
      </trkpt>
      <trkpt lat="43.59221" lon="6.92226">
        <ele>20</ele>
        <time>2012-06-19T18:38:37Z</time>
      </trkpt>
      <trkpt lat="43.59239" lon="6.92282">
        <ele>19</ele>
        <time>2012-06-19T18:38:46Z</time>
      </trkpt>
      <trkpt lat="43.59283" lon="6.92321">
        <ele>19</ele>
        <time>2012-06-19T18:38:55Z</time>
      </trkpt>
      <trkpt lat="43.59314" lon="6.9237">
        <ele>18</ele>
        <time>2012-06-19T18:39:04Z</time>
      </trkpt>
      <trkpt lat="43.5934" lon="6.92426">
        <ele>18</ele>
        <time>2012-06-19T18:39:13Z</time>
      </trkpt>
      <trkpt lat="43.59371" lon="6.92476">
        <ele>18</ele>
        <time>2012-06-19T18:39:22Z</time>
      </trkpt>
      <trkpt lat="43.59408" lon="6.92523">
        <ele>18</ele>
        <time>2012-06-19T18:39:31Z</time>
      </trkpt>
      <trkpt lat="43.59447" lon="6.92574">
        <ele>18</ele>
        <time>2012-06-19T18:39:40Z</time>
      </trkpt>
      <trkpt lat="43.59463" lon="6.92636">
        <ele>18</ele>
        <time>2012-06-19T18:39:49Z</time>
      </trkpt>
      <trkpt lat="43.59451" lon="6.92696">
        <ele>18</ele>
        <time>2012-06-19T18:39:58Z</time>
      </trkpt>
      <trkpt lat="43.59418" lon="6.92758">
        <ele>18</ele>
        <time>2012-06-19T18:40:07Z</time>
      </trkpt>
      <trkpt lat="43.59391" lon="6.92814">
        <ele>18</ele>
        <time>2012-06-19T18:40:16Z</time>
      </trkpt>
      <trkpt lat="43.59367" lon="6.92868">
        <ele>18</ele>
        <time>2012-06-19T18:40:25Z</time>
      </trkpt>
      <trkpt lat="43.59348" lon="6.9292">
        <ele>18</ele>
        <time>2012-06-19T18:40:34Z</time>
      </trkpt>
      <trkpt lat="43.59341" lon="6.92972">
        <ele>18</ele>
        <time>2012-06-19T18:40:43Z</time>
      </trkpt>
      <trkpt lat="43.59386" lon="6.93009">
        <ele>18</ele>
        <time>2012-06-19T18:40:52Z</time>
      </trkpt>
      <trkpt lat="43.59421" lon="6.93052">
        <ele>18</ele>
        <time>2012-06-19T18:41:01Z</time>
      </trkpt>
      <trkpt lat="43.59452" lon="6.93097">
        <ele>18</ele>
        <time>2012-06-19T18:41:10Z</time>
      </trkpt>
      <trkpt lat="43.59481" lon="6.93139">
        <ele>18</ele>
        <time>2012-06-19T18:41:19Z</time>
      </trkpt>
      <trkpt lat="43.59483" lon="6.93179">
        <ele>18</ele>
        <time>2012-06-19T18:41:28Z</time>
      </trkpt>
      <trkpt lat="43.59507" lon="6.93221">
        <ele>18</ele>
        <time>2012-06-19T18:41:37Z</time>
      </trkpt>
      <trkpt lat="43.59547" lon="6.9325">
        <ele>18</ele>
        <time>2012-06-19T18:41:46Z</time>
      </trkpt>
      <trkpt lat="43.59583" lon="6.93276">
        <ele>18</ele>
        <time>2012-06-19T18:41:55Z</time>
      </trkpt>
      <trkpt lat="43.59607" lon="6.93305">
        <ele>20</ele>
        <time>2012-06-19T18:42:04Z</time>
      </trkpt>
      <trkpt lat="43.59619" lon="6.93339">
        <ele>24</ele>
        <time>2012-06-19T18:42:13Z</time>
      </trkpt>
      <trkpt lat="43.59642" lon="6.93374">
        <ele>27</ele>
        <time>2012-06-19T18:42:22Z</time>
      </trkpt>
      <trkpt lat="43.59671" lon="6.93402">
        <ele>27</ele>
        <time>2012-06-19T18:42:31Z</time>
      </trkpt>
      <trkpt lat="43.59696" lon="6.93433">
        <ele>27</ele>
        <time>2012-06-19T18:42:40Z</time>
      </trkpt>
      <trkpt lat="43.59704" lon="6.93465">
        <ele>27</ele>
        <time>2012-06-19T18:42:49Z</time>
      </trkpt>
      <trkpt lat="43.59712" lon="6.93504">
        <ele>27</ele>
        <time>2012-06-19T18:42:58Z</time>
      </trkpt>
      <trkpt lat="43.59725" lon="6.93556">
        <ele>27</ele>
        <time>2012-06-19T18:43:07Z</time>
      </trkpt>
      <trkpt lat="43.59738" lon="6.93608">
        <ele>27</ele>
        <time>2012-06-19T18:43:16Z</time>
      </trkpt>
      <trkpt lat="43.59751" lon="6.93653">
        <ele>27</ele>
        <time>2012-06-19T18:43:25Z</time>
      </trkpt>
      <trkpt lat="43.59761" lon="6.9369">
        <ele>28</ele>
        <time>2012-06-19T18:43:34Z</time>
      </trkpt>
      <trkpt lat="43.59774" lon="6.93725">
        <ele>31</ele>
        <time>2012-06-19T18:43:43Z</time>
      </trkpt>
      <trkpt lat="43.59779" lon="6.9376">
        <ele>32</ele>
        <time>2012-06-19T18:43:52Z</time>
      </trkpt>
      <trkpt lat="43.59781" lon="6.93795">
        <ele>33</ele>
        <time>2012-06-19T18:44:01Z</time>
      </trkpt>
      <trkpt lat="43.59791" lon="6.93827">
        <ele>33</ele>
        <time>2012-06-19T18:44:10Z</time>
      </trkpt>
      <trkpt lat="43.59801" lon="6.93854">
        <ele>35</ele>
        <time>2012-06-19T18:44:19Z</time>
      </trkpt>
      <trkpt lat="43.59802" lon="6.93882">
        <ele>38</ele>
        <time>2012-06-19T18:44:28Z</time>
      </trkpt>
      <trkpt lat="43.59797" lon="6.939">
        <ele>41</ele>
        <time>2012-06-19T18:44:37Z</time>
      </trkpt>
      <trkpt lat="43.598" lon="6.93913">
        <ele>44</ele>
        <time>2012-06-19T18:44:46Z</time>
      </trkpt>
      <trkpt lat="43.59803" lon="6.93927">
        <ele>46</ele>
        <time>2012-06-19T18:44:56Z</time>
      </trkpt>
      <trkpt lat="43.59805" lon="6.9394">
        <ele>48</ele>
        <time>2012-06-19T18:45:05Z</time>
      </trkpt>
      <trkpt lat="43.59805" lon="6.93952">
        <ele>52</ele>
        <time>2012-06-19T18:45:14Z</time>
      </trkpt>
      <trkpt lat="43.59811" lon="6.93968">
        <ele>56</ele>
        <time>2012-06-19T18:45:24Z</time>
      </trkpt>
      <trkpt lat="43.59813" lon="6.9398">
        <ele>57</ele>
        <time>2012-06-19T18:45:33Z</time>
      </trkpt>
      <trkpt lat="43.59804" lon="6.93987">
        <ele>64</ele>
        <time>2012-06-19T18:45:42Z</time>
      </trkpt>
      <trkpt lat="43.59793" lon="6.9399">
        <ele>70</ele>
        <time>2012-06-19T18:45:51Z</time>
      </trkpt>
      <trkpt lat="43.59783" lon="6.93996">
        <ele>75</ele>
        <time>2012-06-19T18:46:00Z</time>
      </trkpt>
      <trkpt lat="43.59776" lon="6.94007">
        <ele>76</ele>
        <time>2012-06-19T18:46:09Z</time>
      </trkpt>
      <trkpt lat="43.59773" lon="6.94023">
        <ele>77</ele>
        <time>2012-06-19T18:46:19Z</time>
      </trkpt>
      <trkpt lat="43.59769" lon="6.94035">
        <ele>77</ele>
        <time>2012-06-19T18:46:28Z</time>
      </trkpt>
      <trkpt lat="43.59769" lon="6.94052">
        <ele>77</ele>
        <time>2012-06-19T18:46:37Z</time>
      </trkpt>
      <trkpt lat="43.59768" lon="6.94068">
        <ele>77</ele>
        <time>2012-06-19T18:46:46Z</time>
      </trkpt>
      <trkpt lat="43.59763" lon="6.94081">
        <ele>77</ele>
        <time>2012-06-19T18:46:55Z</time>
      </trkpt>
      <trkpt lat="43.59755" lon="6.94094">
        <ele>78</ele>
        <time>2012-06-19T18:47:04Z</time>
      </trkpt>
      <trkpt lat="43.59746" lon="6.94101">
        <ele>79</ele>
        <time>2012-06-19T18:47:14Z</time>
      </trkpt>
      <trkpt lat="43.5974" lon="6.94108">
        <ele>82</ele>
        <time>2012-06-19T18:47:23Z</time>
      </trkpt>
      <trkpt lat="43.59741" lon="6.94121">
        <ele>83</ele>
        <time>2012-06-19T18:47:33Z</time>
      </trkpt>
      <trkpt lat="43.59742" lon="6.94133">
        <ele>84</ele>
        <time>2012-06-19T18:47:42Z</time>
      </trkpt>
      <trkpt lat="43.59745" lon="6.94144">
        <ele>85</ele>
        <time>2012-06-19T18:47:51Z</time>
      </trkpt>
      <trkpt lat="43.59751" lon="6.94153">
        <ele>88</ele>
        <time>2012-06-19T18:48:01Z</time>
      </trkpt>
      <trkpt lat="43.59754" lon="6.94153">
        <ele>93</ele>
        <time>2012-06-19T18:48:10Z</time>
      </trkpt>
      <trkpt lat="43.59757" lon="6.94155">
        <ele>99</ele>
        <time>2012-06-19T18:48:21Z</time>
      </trkpt>
      <trkpt lat="43.59758" lon="6.94165">
        <ele>99</ele>
        <time>2012-06-19T18:48:31Z</time>
      </trkpt>
      <trkpt lat="43.59764" lon="6.94173">
        <ele>102</ele>
        <time>2012-06-19T18:48:40Z</time>
      </trkpt>
      <trkpt lat="43.59771" lon="6.94181">
        <ele>104</ele>
        <time>2012-06-19T18:48:49Z</time>
      </trkpt>
      <trkpt lat="43.59781" lon="6.94194">
        <ele>104</ele>
        <time>2012-06-19T18:48:59Z</time>
      </trkpt>
      <trkpt lat="43.5979" lon="6.94196">
        <ele>104</ele>
        <time>2012-06-19T18:49:08Z</time>
      </trkpt>
      <trkpt lat="43.59797" lon="6.94183">
        <ele>104</ele>
        <time>2012-06-19T18:49:18Z</time>
      </trkpt>
      <trkpt lat="43.59807" lon="6.94178">
        <ele>106</ele>
        <time>2012-06-19T18:49:28Z</time>
      </trkpt>
      <trkpt lat="43.59815" lon="6.94179">
        <ele>106</ele>
        <time>2012-06-19T18:49:39Z</time>
      </trkpt>
      <trkpt lat="43.59825" lon="6.94182">
        <ele>106</ele>
        <time>2012-06-19T18:49:49Z</time>
      </trkpt>
      <trkpt lat="43.59837" lon="6.94182">
        <ele>108</ele>
        <time>2012-06-19T18:49:59Z</time>
      </trkpt>
      <trkpt lat="43.59847" lon="6.94184">
        <ele>113</ele>
        <time>2012-06-19T18:50:08Z</time>
      </trkpt>
      <trkpt lat="43.59856" lon="6.94191">
        <ele>114</ele>
        <time>2012-06-19T18:50:17Z</time>
      </trkpt>
      <trkpt lat="43.5986" lon="6.94206">
        <ele>117</ele>
        <time>2012-06-19T18:50:26Z</time>
      </trkpt>
      <trkpt lat="43.59862" lon="6.94221">
        <ele>119</ele>
        <time>2012-06-19T18:50:35Z</time>
      </trkpt>
      <trkpt lat="43.59864" lon="6.94236">
        <ele>122</ele>
        <time>2012-06-19T18:50:44Z</time>
      </trkpt>
      <trkpt lat="43.5987" lon="6.94252">
        <ele>125</ele>
        <time>2012-06-19T18:50:54Z</time>
      </trkpt>
      <trkpt lat="43.59875" lon="6.94269">
        <ele>127</ele>
        <time>2012-06-19T18:51:04Z</time>
      </trkpt>
      <trkpt lat="43.59882" lon="6.94284">
        <ele>129</ele>
        <time>2012-06-19T18:51:13Z</time>
      </trkpt>
      <trkpt lat="43.5989" lon="6.94299">
        <ele>129</ele>
        <time>2012-06-19T18:51:22Z</time>
      </trkpt>
      <trkpt lat="43.59895" lon="6.94314">
        <ele>130</ele>
        <time>2012-06-19T18:51:31Z</time>
      </trkpt>
      <trkpt lat="43.59901" lon="6.94329">
        <ele>132</ele>
        <time>2012-06-19T18:51:40Z</time>
      </trkpt>
      <trkpt lat="43.59907" lon="6.94347">
        <ele>132</ele>
        <time>2012-06-19T18:51:49Z</time>
      </trkpt>
      <trkpt lat="43.59909" lon="6.94365">
        <ele>134</ele>
        <time>2012-06-19T18:51:58Z</time>
      </trkpt>
      <trkpt lat="43.59912" lon="6.94386">
        <ele>135</ele>
        <time>2012-06-19T18:52:07Z</time>
      </trkpt>
      <trkpt lat="43.5992" lon="6.94406">
        <ele>135</ele>
        <time>2012-06-19T18:52:16Z</time>
      </trkpt>
      <trkpt lat="43.59927" lon="6.94428">
        <ele>137</ele>
        <time>2012-06-19T18:52:25Z</time>
      </trkpt>
      <trkpt lat="43.59931" lon="6.94452">
        <ele>139</ele>
        <time>2012-06-19T18:52:34Z</time>
      </trkpt>
      <trkpt lat="43.59947" lon="6.94492">
        <ele>140</ele>
        <time>2012-06-19T18:52:43Z</time>
      </trkpt>
      <trkpt lat="43.59961" lon="6.94546">
        <ele>142</ele>
        <time>2012-06-19T18:52:52Z</time>
      </trkpt>
      <trkpt lat="43.59974" lon="6.94626">
        <ele>142</ele>
        <time>2012-06-19T18:53:01Z</time>
      </trkpt>
      <trkpt lat="43.5999" lon="6.94702">
        <ele>142</ele>
        <time>2012-06-19T18:53:10Z</time>
      </trkpt>
      <trkpt lat="43.6001" lon="6.94766">
        <ele>142</ele>
        <time>2012-06-19T18:53:19Z</time>
      </trkpt>
      <trkpt lat="43.60025" lon="6.94826">
        <ele>141</ele>
        <time>2012-06-19T18:53:28Z</time>
      </trkpt>
      <trkpt lat="43.60013" lon="6.94875">
        <ele>139</ele>
        <time>2012-06-19T18:53:37Z</time>
      </trkpt>
      <trkpt lat="43.60009" lon="6.94884">
        <ele>139</ele>
        <time>2012-06-19T18:53:46Z</time>
      </trkpt>
      <trkpt lat="43.59999" lon="6.94918">
        <ele>139</ele>
        <time>2012-06-19T18:53:55Z</time>
      </trkpt>
      <trkpt lat="43.59986" lon="6.94959">
        <ele>139</ele>
        <time>2012-06-19T18:54:04Z</time>
      </trkpt>
      <trkpt lat="43.59973" lon="6.95002">
        <ele>139</ele>
        <time>2012-06-19T18:54:13Z</time>
      </trkpt>
      <trkpt lat="43.59959" lon="6.95048">
        <ele>139</ele>
        <time>2012-06-19T18:54:22Z</time>
      </trkpt>
      <trkpt lat="43.59945" lon="6.95092">
        <ele>140</ele>
        <time>2012-06-19T18:54:31Z</time>
      </trkpt>
      <trkpt lat="43.59932" lon="6.95134">
        <ele>142</ele>
        <time>2012-06-19T18:54:40Z</time>
      </trkpt>
      <trkpt lat="43.5992" lon="6.95173">
        <ele>144</ele>
        <time>2012-06-19T18:54:49Z</time>
      </trkpt>
      <trkpt lat="43.59905" lon="6.9522">
        <ele>147</ele>
        <time>2012-06-19T18:54:58Z</time>
      </trkpt>
      <trkpt lat="43.59913" lon="6.95266">
        <ele>148</ele>
        <time>2012-06-19T18:55:07Z</time>
      </trkpt>
      <trkpt lat="43.59922" lon="6.95305">
        <ele>148</ele>
        <time>2012-06-19T18:55:16Z</time>
      </trkpt>
      <trkpt lat="43.59938" lon="6.95352">
        <ele>148</ele>
        <time>2012-06-19T18:55:25Z</time>
      </trkpt>
      <trkpt lat="43.59929" lon="6.95388">
        <ele>150</ele>
        <time>2012-06-19T18:55:34Z</time>
      </trkpt>
      <trkpt lat="43.59905" lon="6.95415">
        <ele>152</ele>
        <time>2012-06-19T18:55:43Z</time>
      </trkpt>
      <trkpt lat="43.59866" lon="6.95422">
        <ele>153</ele>
        <time>2012-06-19T18:55:52Z</time>
      </trkpt>
      <trkpt lat="43.59807" lon="6.95439">
        <ele>153</ele>
        <time>2012-06-19T18:56:01Z</time>
      </trkpt>
      <trkpt lat="43.5976" lon="6.95449">
        <ele>153</ele>
        <time>2012-06-19T18:56:10Z</time>
      </trkpt>
      <trkpt lat="43.59705" lon="6.95461">
        <ele>153</ele>
        <time>2012-06-19T18:56:19Z</time>
      </trkpt>
      <trkpt lat="43.59649" lon="6.95539">
        <ele>148</ele>
        <time>2012-06-19T18:56:29Z</time>
      </trkpt>
      <trkpt lat="43.59582" lon="6.95609">
        <ele>142</ele>
        <time>2012-06-19T18:56:38Z</time>
      </trkpt>
      <trkpt lat="43.5951" lon="6.95633">
        <ele>139</ele>
        <time>2012-06-19T18:56:47Z</time>
      </trkpt>
      <trkpt lat="43.59467" lon="6.95563">
        <ele>132</ele>
        <time>2012-06-19T18:56:56Z</time>
      </trkpt>
      <trkpt lat="43.59404" lon="6.95539">
        <ele>130</ele>
        <time>2012-06-19T18:57:05Z</time>
      </trkpt>
      <trkpt lat="43.59404" lon="6.95542">
        <ele>130</ele>
        <time>2012-06-19T18:57:15Z</time>
      </trkpt>
      <trkpt lat="43.59389" lon="6.95556">
        <ele>130</ele>
        <time>2012-06-19T18:57:24Z</time>
      </trkpt>
      <trkpt lat="43.59373" lon="6.95594">
        <ele>130</ele>
        <time>2012-06-19T18:57:33Z</time>
      </trkpt>
      <trkpt lat="43.59362" lon="6.95628">
        <ele>130</ele>
        <time>2012-06-19T18:57:42Z</time>
      </trkpt>
      <trkpt lat="43.59337" lon="6.95612">
        <ele>130</ele>
        <time>2012-06-19T18:57:51Z</time>
      </trkpt>
      <trkpt lat="43.59337" lon="6.95613">
        <ele>132</ele>
        <time>2012-06-19T18:58:00Z</time>
      </trkpt>
      <trkpt lat="43.59335" lon="6.95615">
        <ele>141</ele>
        <time>2012-06-19T18:58:11Z</time>
      </trkpt>
      <trkpt lat="43.59341" lon="6.95615">
        <ele>142</ele>
        <time>2012-06-19T18:58:22Z</time>
      </trkpt>
      <trkpt lat="43.59336" lon="6.95616">
        <ele>142</ele>
        <time>2012-06-19T18:58:35Z</time>
      </trkpt>
      <trkpt lat="43.59334" lon="6.9562">
        <ele>143</ele>
        <time>2012-06-19T18:58:44Z</time>
      </trkpt>
      <trkpt lat="43.59337" lon="6.95625">
        <ele>141</ele>
        <time>2012-06-19T18:58:53Z</time>
      </trkpt>
      <trkpt lat="43.59336" lon="6.95629">
        <ele>140</ele>
        <time>2012-06-19T18:59:04Z</time>
      </trkpt>
      <trkpt lat="43.59336" lon="6.9563">
        <ele>140</ele>
        <time>2012-06-19T18:59:13Z</time>
      </trkpt>
      <trkpt lat="43.59338" lon="6.95634">
        <ele>140</ele>
        <time>2012-06-19T18:59:17Z</time>
      </trkpt>
    </trkseg>
  </trk>
</gpx>